EW7814 / D-AIQM 7700 Squawk Report (18th of June, 2019)

Aircraft A320 Reg No. D-AIQM Age 27 years old
Model A320 Jet engines 2 First flight 04-11-91
Registered 15-03-17 Rollout 10-91 Delivered 20-01-92
Construction No. 0268 Line No. N/A Series 211
ADSHEX 3C662D Airline name Eurowings Owner N/A
Airfield based Dusseldorf~Nordrhein-Westfalen~D First tracked 2018-05-23 07:20:00

Flight history for D-AIQM

Route Flight No Date Playback
Split (SPU) - Hamburg (HAM) EW7985 2019-07-20 21:47:00
Hamburg (HAM) - Split (SPU) EW7984 2019-07-20 19:50:00
Poretta (BIA) - Hamburg (HAM) EW7431 2019-07-20 17:06:00
Hamburg (HAM) - Poretta (BIA) EW7430 2019-07-20 11:47:00
Schwechat (VIE) - Hamburg (HAM) EW7753 2019-07-20 08:44:00
Hamburg (HAM) - Schwechat (VIE) EW7752 2019-07-20 06:26:00
Nuremberg (NUE) - Hamburg (HAM) EW7051 2019-07-20 05:06:00
Hamburg (HAM) - Nuremberg (NUE) EW7050 2019-07-19 18:56:00
Zurich (ZRH) - Hamburg (HAM) EW7763 2019-07-19 16:15:00
Hamburg (HAM) - Zurich (ZRH) EW7762 2019-07-19 14:11:00
Son Sant Joan (PMI) - Hamburg (HAM) EW7583 2019-07-19 12:57:00
Hamburg (HAM) - Son Sant Joan (PMI) EW7582 2019-07-19 07:27:00
Nuremberg (NUE) - Hamburg (HAM) EW7051 2019-07-19 04:56:00
Hamburg (HAM) - Nuremberg (NUE) EW7050 2019-07-18 19:22:00
Barcelona–El Prat (BCN) - Hamburg (HAM) EW7521 2019-07-18 16:50:00
Hamburg (HAM) - Barcelona–El Prat (BCN) EW7520 2019-07-18 13:27:00
Zurich (ZRH) - Hamburg (HAM) EW7761 2019-07-18 10:25:00
Hamburg (HAM) - Zurich (ZRH) EW7760 2019-07-18 06:18:00
Zurich (ZRH) - Hamburg (HAM) EW7765 2019-07-18 04:58:00
Hamburg (HAM) - Zurich (ZRH) EW7764 2019-07-17 18:16:00
Time Lat Lon Altitude Heading Speed Vertical Rate
2019-06-18 11:23:35 GMT 53.626152 9.995337 0 241 4 0
2019-06-18 11:23:05 GMT 53.626328 9.994994 0 154 11 0
2019-06-18 11:22:47 GMT 53.626671 9.995499 0 241 12 0
2019-06-18 11:22:42 GMT 53.626842 9.995675 0 219 12 0
2019-06-18 11:22:32 GMT 53.627190 9.995842 0 151 13 0
2019-06-18 11:22:23 GMT 53.627872 9.995165 0 154 18 0
2019-06-18 11:22:14 GMT 53.628563 9.994469 0 151 16 0
2019-06-18 11:22:11 GMT 53.628899 9.994307 0 151 16 0
2019-06-18 11:22:05 GMT 53.629250 9.993964 0 168 14 0
2019-06-18 11:22:02 GMT 53.629246 9.993949 0 174 14 0
2019-06-18 11:21:43 GMT 53.631306 9.994302 0 191 29 0
2019-06-18 11:21:27 GMT 53.633366 9.993439 0 154 34 0
2019-06-18 11:21:22 GMT 53.634052 9.992752 0 151 50 0
2019-06-18 11:21:13 GMT 53.636292 9.990692 0 154 67 0
2019-06-18 11:21:03 GMT 53.639545 9.987946 0 154 78 0
2019-06-18 11:20:52 GMT 53.643154 9.984694 0 154 90 0
2019-06-18 11:20:46 GMT 53.645554 9.982629 0 154 110 0
2019-06-18 11:20:42 GMT 53.647278 9.980918 0 154 125 0
2019-06-18 11:20:32 GMT 53.654804 9.974536 100 153 137 -576
2019-06-18 11:20:23 GMT 53.658234 9.971584 150 153 139 -512
2019-06-18 11:20:19 GMT 53.660294 9.969857 175 153 139 -832
2019-06-18 11:20:13 GMT 53.664093 9.966483 275 153 139 -704
2019-06-18 11:20:10 GMT 53.665466 9.965246 325 154 142 -576
2019-06-18 11:20:07 GMT 53.667702 9.963226 350 153 142 -704
2019-06-18 11:20:01 GMT 53.670776 9.960597 400 153 144 -832
2019-06-18 11:19:58 GMT 53.672821 9.958945 450 153 145 -640
2019-06-18 11:19:51 GMT 53.676636 9.955497 550 153 145 -640
2019-06-18 11:19:48 GMT 53.678501 9.953775 575 153 145 -896
2019-06-18 11:19:45 GMT 53.680737 9.951836 625 153 145 -960
2019-06-18 11:19:42 GMT 53.682457 9.950463 675 153 144 -896
2019-06-18 11:19:39 GMT 53.684189 9.948983 700 153 143 -832
2019-06-18 11:19:36 GMT 53.686066 9.947257 750 153 140 -576
2019-06-18 11:19:32 GMT 53.688461 9.945374 850 153 137 -832
2019-06-18 11:19:29 GMT 53.689999 9.944000 800 153 137 -832
2019-06-18 11:19:24 GMT 53.693119 9.941254 925 153 134 -704
2019-06-18 11:19:21 GMT 53.694305 9.940037 900 153 135 -512
2019-06-18 11:19:18 GMT 53.696190 9.938507 950 153 134 -832
2019-06-18 11:19:13 GMT 53.698608 9.936428 1,000 153 134 -640
2019-06-18 11:19:10 GMT 53.700302 9.934701 1,025 153 134 -640
2019-06-18 11:19:07 GMT 53.701859 9.933681 1,050 153 134 -704
2019-06-18 11:19:02 GMT 53.705269 9.930429 1,150 153 134 -832
2019-06-18 11:18:59 GMT 53.706985 9.929051 1,175 154 133 -704
2019-06-18 11:18:55 GMT 53.709045 9.927168 1,225 154 132 -576
2019-06-18 11:18:52 GMT 53.710110 9.926309 1,250 153 132 -512
2019-06-18 11:18:49 GMT 53.713181 9.923724 1,275 154 133 -512
2019-06-18 11:18:43 GMT 53.714722 9.922381 1,350 153 136 -896
2019-06-18 11:18:37 GMT 53.718338 9.919242 1,375 153 138 -896
2019-06-18 11:18:33 GMT 53.720722 9.917181 1,450 153 138 -832
2019-06-18 11:18:30 GMT 53.722275 9.915789 1,475 153 139 -832
2019-06-18 11:18:25 GMT 53.725525 9.913042 1,575 153 140 -832
2019-06-18 11:18:21 GMT 53.727940 9.910880 1,650 153 142 -704
2019-06-18 11:18:18 GMT 53.731197 9.907891 1,650 153 143 -640
2019-06-18 11:18:15 GMT 53.731197 9.907891 1,700 153 145 -896
2019-06-18 11:18:12 GMT 53.733078 9.906372 1,725 153 146 -768
2019-06-18 11:18:09 GMT 53.735138 9.904489 1,750 153 146 -832
2019-06-18 11:18:06 GMT 53.736877 9.903125 1,825 153 147 -896
2019-06-18 11:18:02 GMT 53.739811 9.900540 1,875 153 146 -704
2019-06-18 11:17:59 GMT 53.740997 9.899309 1,900 153 147 -704
2019-06-18 11:17:56 GMT 53.743057 9.897818 1,950 153 147 -640
2019-06-18 11:17:51 GMT 53.745956 9.895208 2,025 153 148 -768
2019-06-18 11:17:48 GMT 53.748192 9.893350 2,050 153 147 -704
2019-06-18 11:17:44 GMT 53.750107 9.891462 2,125 154 148 -576
2019-06-18 11:17:41 GMT 53.751820 9.889876 2,125 153 148 -576
2019-06-18 11:17:38 GMT 53.753174 9.888715 2,150 154 148 -576
2019-06-18 11:17:34 GMT 53.756428 9.886160 2,250 153 152 -576
2019-06-18 11:17:31 GMT 53.758163 9.884556 2,325 153 157 -768
2019-06-18 11:17:27 GMT 53.760910 9.882202 2,300 153 160 -896
2019-06-18 11:17:24 GMT 53.762787 9.880319 2,350 156 209 -832
2019-06-18 11:17:19 GMT 53.767601 9.876144 2,400 153 163 -832
2019-06-18 11:17:13 GMT 53.770161 9.874124 2,475 153 166 -1088
2019-06-18 11:17:09 GMT 53.774643 9.870353 2,550 153 171 -1280
2019-06-18 11:17:02 GMT 53.778259 9.866900 2,725 153 174 -1280
2019-06-18 11:16:57 GMT 53.781521 9.864188 2,825 153 178 -1280
2019-06-18 11:16:54 GMT 53.783756 9.862249 2,900 153 181 -1024
2019-06-18 11:16:48 GMT 53.788376 9.858346 2,950 153 185 -640
2019-06-18 11:16:45 GMT 53.789932 9.856934 2,975 153 190 -576
2019-06-18 11:16:42 GMT 53.792816 9.854187 3,000 153 193 -832
2019-06-18 11:16:39 GMT 53.798653 9.849405 3,175 154 197 -960
2019-06-18 11:16:36 GMT 53.798653 9.849405 3,150 155 198 -896
2019-06-18 11:16:33 GMT 53.800232 9.848223 3,175 155 200 -832
2019-06-18 11:16:30 GMT 53.802292 9.846810 3,200 155 200 -896
2019-06-18 11:16:27 GMT 53.809128 9.841650 3,300 156 205 -896
2019-06-18 11:16:23 GMT 53.809128 9.841650 3,325 157 207 -896
2019-06-18 11:16:20 GMT 53.812592 9.839120 3,425 155 212 -640
2019-06-18 11:16:16 GMT 53.814789 9.837551 3,425 156 211 -768
2019-06-18 11:16:13 GMT 53.818909 9.833941 3,475 151 215 -640
2019-06-18 11:16:10 GMT 53.820145 9.832528 3,500 140 220 -576
2019-06-18 11:16:05 GMT 53.824768 9.826564 3,550 131 224 -640
2019-06-18 11:16:02 GMT 53.828522 9.818638 3,600 120 230 -896
2019-06-18 11:15:59 GMT 53.828522 9.818638 3,650 118 231 -1152
2019-06-18 11:15:55 GMT 53.830448 9.812487 3,675 118 231 -1152
2019-06-18 11:15:52 GMT 53.832123 9.807479 3,750 118 233 -1152
2019-06-18 11:15:48 GMT 53.833694 9.802159 3,875 118 234 -1216
2019-06-18 11:15:45 GMT 53.837105 9.791727 3,925 118 234 -1152
2019-06-18 11:15:42 GMT 53.838501 9.787249 4,000 118 235 -1280
2019-06-18 11:15:36 GMT 53.841248 9.778303 4,125 118 234 -1536
2019-06-18 11:15:33 GMT 53.843994 9.769431 4,200 117 234 -1472
2019-06-18 11:15:29 GMT 53.843994 9.769431 4,250 117 234 -1472
2019-06-18 11:15:26 GMT 53.845016 9.766119 4,300 117 233 -1408
2019-06-18 11:15:23 GMT 53.846741 9.760464 4,400 117 233 -1408
2019-06-18 11:15:19 GMT 53.848434 9.754839 4,475 116 233 -1280
2019-06-18 11:15:14 GMT 53.850861 9.745501 4,525 116 234 -1216
2019-06-18 11:15:10 GMT 53.853928 9.733337 4,675 111 236 -1024
2019-06-18 11:15:07 GMT 53.853928 9.733337 4,750 104 239 -1280
2019-06-18 11:15:03 GMT 53.854980 9.726118 4,875 100 242 -1472
2019-06-18 11:15:00 GMT 53.855301 9.712228 4,950 89 246 -1792
2019-06-18 11:14:55 GMT 53.855301 9.712228 5,000 84 248 -1856
2019-06-18 11:14:51 GMT 53.854282 9.701736 5,150 74 251 -1856
2019-06-18 11:14:48 GMT 53.853607 9.697632 5,800 67 252 -1792
2019-06-18 11:14:45 GMT 53.852051 9.691668 5,325 62 254 -1600
2019-06-18 11:14:41 GMT 53.850185 9.685256 5,400 59 256 -1344
2019-06-18 11:14:38 GMT 53.847950 9.679117 5,475 56 258 -1088
2019-06-18 11:14:35 GMT 53.845016 9.672573 5,575 55 260 -1088
2019-06-18 11:14:32 GMT 53.842941 9.666949 5,625 52 261 -1280
2019-06-18 11:14:28 GMT 53.840363 9.662314 5,675 48 262 -1408
2019-06-18 11:14:24 GMT 53.837448 9.657453 5,875 41 264 -1536
2019-06-18 11:14:21 GMT 53.829895 9.647879 5,900 35 264 -1536
2019-06-18 11:14:17 GMT 53.829895 9.647879 5,950 31 265 -1408
2019-06-18 11:14:14 GMT 53.828018 9.645761 6,100 30 266 -1408
2019-06-18 11:14:11 GMT 53.824265 9.641837 6,100 30 266 -1408
2019-06-18 11:14:08 GMT 53.820145 9.637521 6,125 30 266 -1472
2019-06-18 11:14:05 GMT 53.818085 9.635481 6,250 30 265 -1536
2019-06-18 11:14:02 GMT 53.811722 9.629124 6,350 30 265 -1472
2019-06-18 11:13:59 GMT 53.811722 9.629124 6,375 30 265 -1408
2019-06-18 11:13:56 GMT 53.808289 9.625750 6,450 30 264 -1344
2019-06-18 11:13:52 GMT 53.803986 9.621277 6,525 30 264 -1344
2019-06-18 11:13:49 GMT 53.800888 9.618126 6,600 30 264 -1344
2019-06-18 11:13:45 GMT 53.797115 9.614572 6,700 30 264 -1280
2019-06-18 11:13:42 GMT 53.793671 9.610775 6,750 30 264 -1152
2019-06-18 11:13:39 GMT 53.790787 9.607867 6,800 30 264 -1088
2019-06-18 11:13:36 GMT 53.786316 9.603424 6,875 30 266 -1024
2019-06-18 11:13:31 GMT 53.782196 9.598755 7,025 30 267 -1216
2019-06-18 11:13:28 GMT 53.775146 9.591928 7,075 30 267 -1280
2019-06-18 11:13:25 GMT 53.772766 9.589338 7,175 30 267 -1280
2019-06-18 11:13:22 GMT 53.772766 9.589338 7,175 29 273 -512
2019-06-18 11:13:19 GMT 53.768784 9.585336 7,175 29 268 -1152
2019-06-18 11:13:16 GMT 53.765553 9.582259 7,250 29 269 -960
2019-06-18 11:13:13 GMT 53.761784 9.578301 7,300 29 269 -832
2019-06-18 11:13:08 GMT 53.756104 9.572808 7,350 29 274 -448
2019-06-18 11:13:04 GMT 53.753033 9.569738 7,350 28 275 -384
2019-06-18 11:13:00 GMT 53.747864 9.565295 7,400 27 280 -448
2019-06-18 11:12:57 GMT 53.744751 9.562343 7,400 25 282 -576
2019-06-18 11:12:54 GMT 53.735992 9.556167 7,500 18 286 -896
2019-06-18 11:12:51 GMT 53.732922 9.554632 7,700 2 308 -1920
2019-06-18 11:12:48 GMT 53.732922 9.554632 7,575 6 291 -896
2019-06-18 11:12:45 GMT 53.729664 9.553420 7,575 8 290 -896
2019-06-18 11:12:42 GMT 53.720901 9.552220 7,625 4 292 -832
2019-06-18 11:12:39 GMT 53.720901 9.552220 7,650 2 297 -704
2019-06-18 11:12:36 GMT 53.717148 9.551749 7,700 2 295 -640
2019-06-18 11:12:33 GMT 53.712345 9.551401 7,750 2 301 -704
2019-06-18 11:12:29 GMT 53.707672 9.551043 7,800 2 300 -768
2019-06-18 11:12:26 GMT 53.698612 9.550027 7,825 2 301 -704
2019-06-18 11:12:23 GMT 53.698612 9.550027 7,900 3 310 -1920
2019-06-18 11:12:20 GMT 53.694981 9.549866 7,875 2 305 -832
2019-06-18 11:12:17 GMT 53.689819 9.549159 7,900 2 306 -896
2019-06-18 11:12:14 GMT 53.686928 9.548977 7,975 2 308 -1088
2019-06-18 11:12:10 GMT 53.680550 9.548654 8,100 2 309 -1856
2019-06-18 11:12:07 GMT 53.677151 9.548089 8,200 2 308 -1920
2019-06-18 11:12:03 GMT 53.671986 9.547765 8,275 2 308 -1920
2019-06-18 11:11:59 GMT 53.665466 9.547119 8,425 2 309 -1600
2019-06-18 11:11:55 GMT 53.655167 9.546099 8,625 3 309 -1792
2019-06-18 11:11:52 GMT 53.655167 9.546099 9,575 3 310 -1920
2019-06-18 11:11:46 GMT 53.647591 9.545019 8,850 4 311 -1856
2019-06-18 11:11:43 GMT 53.643494 9.544534 8,875 4 312 -1984
2019-06-18 11:11:39 GMT 53.638184 9.543509 8,950 5 312 -1984
2019-06-18 11:11:36 GMT 53.633205 9.542434 9,225 7 312 -2176
2019-06-18 11:11:33 GMT 53.625294 9.539526 9,350 14 311 -2240
2019-06-18 11:11:30 GMT 53.619984 9.536941 9,425 16 312 -2176
2019-06-18 11:11:27 GMT 53.619984 9.536941 9,575 20 313 -1920
2019-06-18 11:11:23 GMT 53.615143 9.533225 9,550 24 317 -2432
2019-06-18 11:11:20 GMT 53.605740 9.526358 9,700 23 343 -832
2019-06-18 11:11:16 GMT 53.605740 9.526358 10,425 24 318 -2048
2019-06-18 11:11:13 GMT 53.595245 9.517535 10,050 24 317 -2432
2019-06-18 11:11:08 GMT 53.595245 9.517535 10,150 24 318 -2176
2019-06-18 11:11:05 GMT 53.587166 9.511010 10,275 24 320 -1600
2019-06-18 11:10:59 GMT 53.583755 9.508432 10,325 24 320 -1408
2019-06-18 11:10:56 GMT 53.573776 9.500898 10,450 23 327 -768
2019-06-18 11:10:53 GMT 53.573776 9.500898 10,500 23 327 -768
2019-06-18 11:10:50 GMT 53.571384 9.499054 10,500 23 329 -640
2019-06-18 11:10:47 GMT 53.565563 9.494773 10,525 23 332 -576
2019-06-18 11:10:43 GMT 53.560226 9.490618 10,575 23 335 -640
2019-06-18 11:10:40 GMT 53.556812 9.488068 10,600 23 337 -704
2019-06-18 11:10:37 GMT 53.553543 9.485831 10,625 23 339 -704
2019-06-18 11:10:34 GMT 53.547546 9.481201 10,675 23 341 -768
2019-06-18 11:10:31 GMT 53.544292 9.478616 10,675 23 343 -768
2019-06-18 11:10:28 GMT 53.536377 9.472726 10,825 23 350 -1024
2019-06-18 11:10:22 GMT 53.528648 9.466903 10,875 23 351 -1024
2019-06-18 11:10:19 GMT 53.526398 9.465193 10,900 23 353 -1024
2019-06-18 11:10:16 GMT 53.521622 9.461571 10,950 23 354 -1024
2019-06-18 11:10:12 GMT 53.515102 9.456805 11,025 23 358 -1024
2019-06-18 11:10:09 GMT 53.504608 9.448870 11,075 23 361 -1024
2019-06-18 11:10:06 GMT 53.504608 9.448870 11,125 23 362 -1088
2019-06-18 11:10:02 GMT 53.498932 9.444946 11,225 23 366 -1088
2019-06-18 11:09:59 GMT 53.491241 9.438747 11,300 23 370 -1024
2019-06-18 11:09:53 GMT 53.484879 9.433960 11,375 23 374 -1024
2019-06-18 11:09:49 GMT 53.478886 9.429501 11,400 23 375 -960
2019-06-18 11:09:46 GMT 53.471157 9.423846 11,525 23 381 -1280
2019-06-18 11:09:40 GMT 53.463913 9.418501 11,625 22 385 -1728
2019-06-18 11:09:34 GMT 53.456360 9.413164 11,750 22 386 -1728
2019-06-18 11:09:31 GMT 53.449860 9.408770 11,875 20 387 -1856
2019-06-18 11:09:28 GMT 53.446060 9.406651 12,325 14 390 -1984
2019-06-18 11:09:24 GMT 53.439922 9.403731 12,050 14 390 -1984
2019-06-18 11:09:21 GMT 53.433544 9.401389 12,175 11 392 -2048
2019-06-18 11:09:18 GMT 53.427723 9.399773 12,300 7 392 -2112
2019-06-18 11:09:14 GMT 53.421341 9.398804 12,425 4 394 -2112
2019-06-18 11:09:11 GMT 53.414841 9.398097 12,575 2 395 -2048
2019-06-18 11:09:08 GMT 53.408825 9.397592 12,650 2 396 -2048
2019-06-18 11:09:04 GMT 53.395935 9.396371 12,825 2 404 -2176
2019-06-18 11:09:01 GMT 53.395935 9.396371 12,900 2 399 -2112
2019-06-18 11:08:57 GMT 53.389435 9.395665 13,375 2 401 -2048
2019-06-18 11:08:54 GMT 53.384262 9.395351 13,100 2 402 -2112
2019-06-18 11:08:51 GMT 53.378284 9.394845 13,550 2 402 -2176
2019-06-18 11:08:48 GMT 53.371071 9.394280 13,325 2 403 -2112
2019-06-18 11:08:45 GMT 53.368137 9.393957 13,450 2 403 -2112
2019-06-18 11:08:42 GMT 53.362656 9.393467 13,550 2 403 -2176
2019-06-18 11:08:39 GMT 53.350800 9.392290 13,725 2 404 -2112
2019-06-18 11:08:33 GMT 53.343788 9.391533 13,900 3 405 -2176
2019-06-18 11:08:30 GMT 53.339493 9.391035 13,975 3 405 -2176
2019-06-18 11:08:27 GMT 53.333828 9.390564 14,075 3 405 -2176
2019-06-18 11:08:24 GMT 53.328476 9.390160 14,625 2 407 -2048
2019-06-18 11:08:21 GMT 53.323151 9.389544 14,300 3 406 -2048
2019-06-18 11:08:18 GMT 53.317154 9.388994 14,525 3 406 -2048
2019-06-18 11:08:15 GMT 53.311157 9.388302 14,500 3 406 -2048
2019-06-18 11:08:12 GMT 53.303944 9.387817 14,575 2 406 -2048
2019-06-18 11:08:09 GMT 53.301010 9.387413 14,675 2 407 -2112
2019-06-18 11:08:05 GMT 53.292252 9.386562 14,850 3 409 -2112
2019-06-18 11:08:02 GMT 53.286438 9.386091 14,950 3 410 -2112
2019-06-18 11:07:59 GMT 53.281815 9.385542 15,075 3 411 -2112
2019-06-18 11:07:56 GMT 53.276802 9.385071 16,975 3 419 -2240
2019-06-18 11:07:53 GMT 53.269447 9.384344 15,375 3 415 -2176
2019-06-18 11:07:50 GMT 53.262039 9.383658 15,425 3 415 -2176
2019-06-18 11:07:47 GMT 53.252270 9.382647 15,575 3 417 -2240
2019-06-18 11:07:41 GMT 53.247662 9.382163 15,700 3 419 -2240
2019-06-18 11:07:37 GMT 53.237698 9.381112 15,925 3 422 -2304
2019-06-18 11:07:33 GMT 53.232010 9.380441 16,000 3 423 -2304
2019-06-18 11:07:30 GMT 53.224960 9.379735 16,150 3 424 -2368
2019-06-18 11:07:27 GMT 53.212097 9.378165 16,975 357 438 -2112
2019-06-18 11:07:24 GMT 53.212097 9.378165 16,400 3 427 -2368
2019-06-18 11:07:21 GMT 53.207291 9.377694 16,575 3 428 -2304
2019-06-18 11:07:18 GMT 53.201981 9.376988 16,725 3 429 -2240
2019-06-18 11:07:12 GMT 53.188568 9.375811 16,900 3 430 -2240
2019-06-18 11:07:09 GMT 53.182392 9.375054 16,950 2 430 -2048
2019-06-18 11:07:06 GMT 53.176064 9.374408 17,075 3 430 -2176
2019-06-18 11:07:03 GMT 53.170395 9.373849 17,150 2 430 -2048
2019-06-18 11:07:00 GMT 53.166275 9.373535 17,225 2 430 -2048
2019-06-18 11:06:56 GMT 53.156479 9.372829 17,450 2 430 -2048
2019-06-18 11:06:53 GMT 53.150318 9.372711 17,550 0 430 -2112
2019-06-18 11:06:50 GMT 53.145851 9.372711 17,600 0 430 -2112
2019-06-18 11:06:47 GMT 53.139496 9.372515 17,725 0 430 -2112
2019-06-18 11:06:43 GMT 53.131603 9.373034 17,900 359 430 -2176
2019-06-18 11:06:40 GMT 53.126949 9.373196 17,975 358 431 -2176
2019-06-18 11:06:37 GMT 53.120270 9.373692 18,100 357 431 -2240
2019-06-18 11:06:34 GMT 53.115097 9.374241 18,250 357 431 -2240
2019-06-18 11:06:31 GMT 53.108093 9.374948 18,400 357 435 -2176
2019-06-18 11:06:28 GMT 53.101730 9.375419 18,450 357 433 -2176
2019-06-18 11:06:24 GMT 53.095551 9.375968 18,525 357 434 -2176
2019-06-18 11:06:21 GMT 53.086777 9.376831 18,850 357 436 -2112
2019-06-18 11:06:18 GMT 53.080948 9.377289 18,825 357 435 -2176
2019-06-18 11:06:15 GMT 53.074951 9.377851 18,925 357 435 -2176
2019-06-18 11:06:12 GMT 53.070328 9.378204 19,025 357 436 -2112
2019-06-18 11:06:09 GMT 53.064289 9.378714 19,200 357 437 -2112
2019-06-18 11:06:05 GMT 53.056423 9.379578 19,175 357 437 -2112
2019-06-18 11:06:01 GMT 53.047672 9.380441 19,750 357 439 -2112
2019-06-18 11:05:58 GMT 53.042175 9.381104 19,425 357 439 -2112
2019-06-18 11:05:55 GMT 53.035290 9.381618 19,625 357 441 -1728
2019-06-18 11:05:52 GMT 53.023975 9.382638 19,700 357 441 -1920
2019-06-18 11:05:49 GMT 53.023975 9.382638 19,800 357 441 -1408
2019-06-18 11:05:46 GMT 53.016575 9.383501 19,850 357 442 -960
2019-06-18 11:05:42 GMT 53.003540 9.384521 19,950 357 442 -704
2019-06-18 11:05:36 GMT 52.995987 9.385223 20,000 357 442 -256
2019-06-18 11:05:31 GMT 52.987247 9.386091 20,000 357 441 64
2019-06-18 11:05:28 GMT 52.977768 9.386749 20,000 357 441 64
2019-06-18 11:05:25 GMT 52.969025 9.387817 20,000 357 442 0
2019-06-18 11:05:22 GMT 52.969025 9.387817 20,000 357 442 0
2019-06-18 11:05:19 GMT 52.959782 9.388445 20,000 357 442 0
2019-06-18 11:05:16 GMT 52.949306 9.389308 20,000 357 442 -64
2019-06-18 11:05:13 GMT 52.942417 9.390015 20,000 357 442 -64
2019-06-18 11:05:10 GMT 52.936085 9.390721 20,000 357 442 0
2019-06-18 11:05:07 GMT 52.936085 9.390721 20,000 357 442 0
2019-06-18 11:05:03 GMT 52.929886 9.391251 20,000 357 442 0
2019-06-18 11:04:59 GMT 52.921329 9.391898 20,000 357 441 64
2019-06-18 11:04:56 GMT 52.915649 9.392447 20,000 357 439 0
2019-06-18 11:04:53 GMT 52.907913 9.393311 20,000 357 441 0
2019-06-18 11:04:50 GMT 52.904339 9.393624 20,000 357 441 0
2019-06-18 11:04:47 GMT 52.898483 9.394302 20,000 357 441 0
2019-06-18 11:04:44 GMT 52.890060 9.395142 20,000 357 441 0
2019-06-18 11:04:40 GMT 52.882366 9.395822 20,000 357 440 64
2019-06-18 11:04:36 GMT 52.873947 9.396744 20,000 357 440 -64
2019-06-18 11:04:33 GMT 52.863098 9.397202 20,000 357 441 0
2019-06-18 11:04:30 GMT 52.863098 9.397202 20,000 357 439 0
2019-06-18 11:04:27 GMT 52.857086 9.397940 20,000 357 441 -64
2019-06-18 11:04:24 GMT 52.849918 9.398568 20,000 357 441 -64
2019-06-18 11:04:21 GMT 52.845108 9.398956 20,000 357 441 0
2019-06-18 11:04:16 GMT 52.829479 9.400844 20,000 357 440 -64
2019-06-18 11:04:13 GMT 52.821579 9.401321 20,000 357 440 0
2019-06-18 11:04:06 GMT 52.814026 9.402237 20,000 357 440 64
2019-06-18 11:04:03 GMT 52.802353 9.403381 20,000 357 439 0
2019-06-18 11:03:57 GMT 52.795822 9.404061 20,000 357 439 0
2019-06-18 11:03:53 GMT 52.789120 9.404768 20,000 357 439 0
2019-06-18 11:03:50 GMT 52.775249 9.406337 20,000 357 440 0
2019-06-18 11:03:47 GMT 52.775249 9.406337 20,000 357 440 0
2019-06-18 11:03:44 GMT 52.767334 9.407043 20,000 357 440 0
2019-06-18 11:03:41 GMT 52.763889 9.407514 20,000 357 440 64
2019-06-18 11:03:37 GMT 52.754951 9.408378 20,000 358 440 0
2019-06-18 11:03:34 GMT 52.749664 9.408875 20,000 357 440 0
2019-06-18 11:03:30 GMT 52.742615 9.409398 20,000 358 440 0
2019-06-18 11:03:27 GMT 52.732979 9.409555 20,000 0 442 -64
2019-06-18 11:03:24 GMT 52.729069 9.409555 20,000 0 442 -64
2019-06-18 11:03:21 GMT 52.723064 9.409398 20,000 1 443 -64
2019-06-18 11:03:18 GMT 52.716843 9.409103 20,000 2 443 0
2019-06-18 11:03:14 GMT 52.707932 9.408064 20,000 4 443 0
2019-06-18 11:03:11 GMT 52.696434 9.406180 20,000 5 443 0
2019-06-18 11:03:08 GMT 52.687683 9.404061 20,000 5 442 0
2019-06-18 11:03:04 GMT 52.687683 9.404061 20,000 5 442 0
2019-06-18 11:03:01 GMT 52.682701 9.403277 20,000 5 442 0
2019-06-18 11:02:58 GMT 52.676510 9.401707 20,000 5 442 0
2019-06-18 11:02:55 GMT 52.670700 9.400635 20,000 5 442 0
2019-06-18 11:02:52 GMT 52.659164 9.398804 20,000 5 442 0
2019-06-18 11:02:49 GMT 52.652985 9.397736 20,000 5 443 0
2019-06-18 11:02:46 GMT 52.652985 9.397736 20,000 5 442 0
2019-06-18 11:02:43 GMT 52.645798 9.396362 20,000 5 443 0
2019-06-18 11:02:40 GMT 52.638565 9.394989 20,000 5 443 0
2019-06-18 11:02:37 GMT 52.634800 9.394488 20,000 5 443 0
2019-06-18 11:02:34 GMT 52.627258 9.392918 20,000 5 443 0
2019-06-18 11:02:31 GMT 52.621578 9.392055 20,000 5 443 0
2019-06-18 11:02:28 GMT 52.614532 9.390869 20,000 5 443 0
2019-06-18 11:02:25 GMT 52.609589 9.389877 20,000 5 443 0
2019-06-18 11:02:22 GMT 52.600983 9.388504 20,000 5 443 0
2019-06-18 11:02:19 GMT 52.597233 9.387582 20,000 5 443 0
2019-06-18 11:02:16 GMT 52.591736 9.386749 20,000 5 443 0
2019-06-18 11:02:13 GMT 52.583824 9.385385 20,000 5 443 0
2019-06-18 11:02:05 GMT 52.568695 9.382638 20,000 5 443 0
2019-06-18 11:02:01 GMT 52.555519 9.380441 20,000 5 443 0
2019-06-18 11:01:55 GMT 52.547607 9.379028 20,000 5 443 0
2019-06-18 11:01:50 GMT 52.537643 9.377145 20,000 5 443 0
2019-06-18 11:01:47 GMT 52.530762 9.376144 20,000 5 443 0
2019-06-18 11:01:44 GMT 52.526642 9.375229 20,000 5 443 0
2019-06-18 11:01:40 GMT 52.517899 9.373703 20,000 5 443 0
2019-06-18 11:01:37 GMT 52.512600 9.372829 20,000 5 443 0
2019-06-18 11:01:34 GMT 52.505722 9.371643 20,000 5 442 0
2019-06-18 11:01:30 GMT 52.496449 9.370082 20,000 5 442 0
2019-06-18 11:01:27 GMT 52.485275 9.368199 20,000 5 442 -64
2019-06-18 11:01:19 GMT 52.475510 9.366531 20,000 5 442 -64
2019-06-18 11:01:16 GMT 52.468796 9.365295 20,000 5 442 0
2019-06-18 11:01:13 GMT 52.460907 9.364090 20,000 5 442 64
2019-06-18 11:01:10 GMT 52.457157 9.363569 20,000 5 442 0
2019-06-18 11:01:04 GMT 52.443748 9.361372 20,000 5 442 64
2019-06-18 11:01:00 GMT 52.435867 9.359970 20,000 5 442 0
2019-06-18 11:00:56 GMT 52.429180 9.358939 20,000 5 442 0
2019-06-18 11:00:52 GMT 52.421265 9.357605 20,000 5 442 0
2019-06-18 11:00:49 GMT 52.415085 9.356384 20,000 5 442 0
2019-06-18 11:00:46 GMT 52.408539 9.355011 20,000 5 442 0
2019-06-18 11:00:43 GMT 52.401535 9.353256 20,000 5 442 0
2019-06-18 11:00:37 GMT 52.384872 9.350204 20,000 6 442 0
2019-06-18 11:00:34 GMT 52.379562 9.349518 20,000 6 442 0
2019-06-18 11:00:31 GMT 52.371639 9.347953 20,000 5 442 0
2019-06-18 11:00:28 GMT 52.371639 9.347953 20,000 5 442 0
2019-06-18 11:00:25 GMT 52.366150 9.346924 20,000 5 442 0
2019-06-18 11:00:22 GMT 52.361023 9.346085 20,000 5 442 0
2019-06-18 11:00:19 GMT 52.351902 9.344500 20,000 5 442 0
2019-06-18 11:00:16 GMT 52.346237 9.343491 20,000 5 442 0
2019-06-18 11:00:13 GMT 52.340591 9.342616 20,000 5 442 0
2019-06-18 11:00:10 GMT 52.334396 9.341439 20,000 5 443 64
2019-06-18 11:00:07 GMT 52.328384 9.340591 20,000 5 442 0
2019-06-18 11:00:04 GMT 52.323395 9.339523 20,000 5 443 64
2019-06-18 11:00:01 GMT 52.317406 9.338693 20,000 5 443 64
2019-06-18 10:59:58 GMT 52.310211 9.337311 20,000 6 444 0
2019-06-18 10:59:54 GMT 52.301765 9.335946 20,000 6 444 0
2019-06-18 10:59:51 GMT 52.297165 9.335251 20,000 6 444 0
2019-06-18 10:59:48 GMT 52.288925 9.333725 20,000 6 444 0
2019-06-18 10:59:45 GMT 52.282745 9.332504 20,000 6 444 0
2019-06-18 10:59:42 GMT 52.277573 9.331818 20,000 6 444 0
2019-06-18 10:59:39 GMT 52.272621 9.330767 20,000 6 443 0
2019-06-18 10:59:36 GMT 52.266403 9.329758 20,000 6 443 0
2019-06-18 10:59:33 GMT 52.259216 9.328413 20,000 6 443 0
2019-06-18 10:59:30 GMT 52.253910 9.327393 20,000 6 443 0
2019-06-18 10:59:27 GMT 52.247177 9.326324 20,000 6 442 0
2019-06-18 10:59:24 GMT 52.242413 9.325274 20,000 6 442 0
2019-06-18 10:59:21 GMT 52.236877 9.324417 20,000 6 442 -64
2019-06-18 10:59:18 GMT 52.230560 9.323425 20,000 6 442 -64
2019-06-18 10:59:15 GMT 52.216480 9.320879 20,000 6 442 0
2019-06-18 10:59:11 GMT 52.216480 9.320879 20,000 6 442 0
2019-06-18 10:59:08 GMT 52.210648 9.319992 20,000 6 441 0
2019-06-18 10:59:05 GMT 52.204285 9.318771 20,000 5 441 0
2019-06-18 10:59:02 GMT 52.196369 9.317426 20,000 6 442 0
2019-06-18 10:58:59 GMT 52.189499 9.316025 20,000 6 442 0
2019-06-18 10:58:53 GMT 52.179054 9.314287 20,000 6 442 0
2019-06-18 10:58:50 GMT 52.172676 9.313110 20,000 6 442 64
2019-06-18 10:58:46 GMT 52.164093 9.311752 20,000 6 442 -64
2019-06-18 10:58:43 GMT 52.159470 9.310913 20,000 6 442 64
2019-06-18 10:58:40 GMT 52.153961 9.310050 20,000 6 442 0
2019-06-18 10:58:37 GMT 52.145908 9.308637 20,000 6 443 0
2019-06-18 10:58:34 GMT 52.140747 9.307785 20,000 6 443 0
2019-06-18 10:58:31 GMT 52.134430 9.306793 20,000 6 442 -64
2019-06-18 10:58:25 GMT 52.120491 9.304164 20,000 6 442 0
2019-06-18 10:58:22 GMT 52.116905 9.303693 20,000 6 442 -64
2019-06-18 10:58:18 GMT 52.107826 9.301967 20,000 6 442 -64
2019-06-18 10:58:15 GMT 52.101639 9.300790 20,000 6 442 -64
2019-06-18 10:58:12 GMT 52.096115 9.299927 20,000 6 442 -64
2019-06-18 10:58:09 GMT 52.089252 9.298671 20,000 6 442 0
2019-06-18 10:58:06 GMT 52.083252 9.297638 20,000 6 441 0
2019-06-18 10:58:03 GMT 52.077755 9.296788 20,000 6 441 0
2019-06-18 10:58:00 GMT 52.071426 9.295611 20,000 6 440 0
2019-06-18 10:57:57 GMT 52.063705 9.294434 20,000 6 441 0
2019-06-18 10:57:54 GMT 52.058205 9.293570 20,000 6 440 0
2019-06-18 10:57:48 GMT 52.046520 9.291295 20,000 6 441 -64
2019-06-18 10:57:44 GMT 52.033630 9.289246 20,000 6 441 -64
2019-06-18 10:57:37 GMT 52.025433 9.287920 20,000 6 441 0
2019-06-18 10:57:34 GMT 52.016830 9.286346 20,000 6 441 0
2019-06-18 10:57:31 GMT 52.012711 9.285660 20,000 6 441 0
2019-06-18 10:57:24 GMT 51.998478 9.283055 20,000 6 441 0
2019-06-18 10:57:21 GMT 51.991928 9.282074 20,000 6 441 0
2019-06-18 10:57:18 GMT 51.986801 9.281158 20,000 5 441 0
2019-06-18 10:57:15 GMT 51.980927 9.280151 20,000 5 442 0
2019-06-18 10:57:12 GMT 51.972885 9.278793 20,000 5 442 0
2019-06-18 10:57:09 GMT 51.968948 9.278107 20,000 6 440 0
2019-06-18 10:57:06 GMT 51.961716 9.276886 20,000 5 442 0
2019-06-18 10:57:03 GMT 51.954857 9.275678 20,000 5 442 0
2019-06-18 10:57:00 GMT 51.943359 9.273795 20,000 5 442 0
2019-06-18 10:56:53 GMT 51.935444 9.272618 20,000 5 441 0
2019-06-18 10:56:50 GMT 51.929813 9.271598 20,000 5 441 0
2019-06-18 10:56:47 GMT 51.924644 9.270735 20,000 5 441 0
2019-06-18 10:56:42 GMT 51.905605 9.267439 20,000 5 441 0
2019-06-18 10:56:39 GMT 51.905605 9.267439 20,000 5 441 0
2019-06-18 10:56:36 GMT 51.902161 9.266968 20,000 5 441 0
2019-06-18 10:56:33 GMT 51.894608 9.265594 20,000 5 441 0
2019-06-18 10:56:30 GMT 51.890987 9.264908 20,000 5 441 0
2019-06-18 10:56:27 GMT 51.883804 9.263702 20,000 5 441 0
2019-06-18 10:56:24 GMT 51.875381 9.262143 20,000 5 441 0
2019-06-18 10:56:20 GMT 51.869015 9.261246 20,000 6 441 0
2019-06-18 10:56:17 GMT 51.863022 9.260064 20,000 5 441 0
2019-06-18 10:56:14 GMT 51.857006 9.259033 20,000 5 441 0
2019-06-18 10:56:10 GMT 51.848068 9.257507 20,000 5 441 0
2019-06-18 10:56:06 GMT 51.833817 9.255091 20,000 6 441 0
2019-06-18 10:56:00 GMT 51.828003 9.254074 20,000 6 441 0
2019-06-18 10:55:57 GMT 51.821823 9.253235 20,000 6 441 64
2019-06-18 10:55:53 GMT 51.815460 9.251676 20,000 6 441 0
2019-06-18 10:55:50 GMT 51.808960 9.250637 20,000 6 441 0
2019-06-18 10:55:47 GMT 51.795547 9.248261 20,000 6 441 0
2019-06-18 10:55:43 GMT 51.795547 9.248261 20,000 6 441 0
2019-06-18 10:55:40 GMT 51.788528 9.247055 20,000 6 441 0
2019-06-18 10:55:37 GMT 51.783875 9.246183 20,000 6 441 0
2019-06-18 10:55:33 GMT 51.773911 9.244614 20,000 6 441 0
2019-06-18 10:55:30 GMT 51.770000 9.243774 20,000 6 441 0
2019-06-18 10:55:27 GMT 51.761761 9.242401 20,000 6 441 0
2019-06-18 10:55:23 GMT 51.753845 9.241209 20,000 6 441 0
2019-06-18 10:55:18 GMT 51.744907 9.239502 20,000 6 440 0
2019-06-18 10:55:14 GMT 51.737694 9.238281 20,000 6 440 0
2019-06-18 10:55:10 GMT 51.728428 9.236755 20,000 6 440 0
2019-06-18 10:55:07 GMT 51.723633 9.236069 20,000 6 441 0
2019-06-18 10:55:03 GMT 51.712646 9.234009 20,000 6 441 0
2019-06-18 10:55:00 GMT 51.706970 9.233118 20,000 6 441 0
2019-06-18 10:54:56 GMT 51.699783 9.231930 20,000 6 441 0
2019-06-18 10:54:52 GMT 51.691681 9.230520 20,000 6 441 0
2019-06-18 10:54:49 GMT 51.685509 9.229507 20,000 6 441 0
2019-06-18 10:54:46 GMT 51.680191 9.228664 20,000 6 441 0
2019-06-18 10:54:42 GMT 51.665630 9.226227 20,000 6 441 0
2019-06-18 10:54:36 GMT 51.659576 9.225082 20,000 6 441 0
2019-06-18 10:54:33 GMT 51.651897 9.223709 20,000 6 442 0
2019-06-18 10:54:30 GMT 51.647598 9.222800 20,000 5 442 64
2019-06-18 10:54:25 GMT 51.638306 9.221464 20,000 6 442 0
2019-06-18 10:54:22 GMT 51.629883 9.220053 20,000 5 442 0
2019-06-18 10:54:17 GMT 51.619446 9.218346 20,000 5 442 0
2019-06-18 10:54:14 GMT 51.613266 9.217158 20,000 5 442 64
2019-06-18 10:54:11 GMT 51.607910 9.216267 20,000 5 442 0
2019-06-18 10:54:07 GMT 51.599525 9.214935 20,000 5 442 64
2019-06-18 10:54:04 GMT 51.595894 9.214401 20,000 5 442 64
2019-06-18 10:54:01 GMT 51.588181 9.213075 20,000 5 443 0
2019-06-18 10:53:54 GMT 51.564144 9.209290 20,000 5 441 0
2019-06-18 10:53:49 GMT 51.564144 9.209290 20,000 5 443 0
2019-06-18 10:53:44 GMT 51.553665 9.207582 20,000 5 442 64
2019-06-18 10:53:41 GMT 51.549061 9.206696 20,000 5 441 64
2019-06-18 10:53:37 GMT 51.538589 9.204788 20,000 5 441 0
2019-06-18 10:53:34 GMT 51.532394 9.203568 20,000 5 441 0
2019-06-18 10:53:29 GMT 51.523453 9.202238 20,000 5 442 0
2019-06-18 10:53:25 GMT 51.510750 9.199982 20,000 5 441 -64
2019-06-18 10:53:21 GMT 51.507156 9.199342 20,000 5 441 -64
2019-06-18 10:53:18 GMT 51.501480 9.198452 20,000 5 442 -64
2019-06-18 10:53:14 GMT 51.491196 9.196701 20,000 5 442 0
2019-06-18 10:53:08 GMT 51.480743 9.195037 20,000 6 443 64
2019-06-18 10:53:04 GMT 51.471786 9.193649 20,000 6 443 0
2019-06-18 10:53:00 GMT 51.454655 9.190521 20,000 6 443 -64
2019-06-18 10:52:56 GMT 51.454655 9.190521 20,000 6 443 0
2019-06-18 10:52:53 GMT 51.450512 9.190063 20,000 6 443 -64
2019-06-18 10:52:50 GMT 51.443115 9.188505 20,000 6 443 -64
2019-06-18 10:52:46 GMT 51.436268 9.187317 20,000 6 443 0
2019-06-18 10:52:43 GMT 51.423744 9.185257 20,000 6 443 0
2019-06-18 10:52:36 GMT 51.414291 9.183655 20,000 6 443 0
2019-06-18 10:52:33 GMT 51.410156 9.183011 20,000 6 442 -64
2019-06-18 10:52:29 GMT 51.402969 9.181824 20,000 6 443 64
2019-06-18 10:52:26 GMT 51.396603 9.180756 20,000 6 443 64
2019-06-18 10:52:23 GMT 51.389248 9.179535 20,000 6 443 64
2019-06-18 10:52:20 GMT 51.384430 9.178706 20,000 6 443 64
2019-06-18 10:52:17 GMT 51.377052 9.177704 20,000 6 443 0
2019-06-18 10:52:14 GMT 51.371887 9.176627 20,000 6 443 -64
2019-06-18 10:52:11 GMT 51.356800 9.174042 20,000 6 443 -64
2019-06-18 10:52:08 GMT 51.356800 9.174042 20,000 6 443 -64
2019-06-18 10:52:04 GMT 51.350967 9.173064 20,000 6 442 0
2019-06-18 10:52:01 GMT 51.344280 9.171982 20,000 6 443 0
2019-06-18 10:51:58 GMT 51.339432 9.171134 20,000 6 443 0
2019-06-18 10:51:53 GMT 51.322815 9.168388 20,000 6 442 0
2019-06-18 10:51:49 GMT 51.318512 9.167720 20,000 6 443 0
2019-06-18 10:51:46 GMT 51.315414 9.167023 20,000 6 443 0
2019-06-18 10:51:43 GMT 51.308212 9.165864 20,000 6 443 0
2019-06-18 10:51:40 GMT 51.301498 9.164810 20,000 6 443 0
2019-06-18 10:51:37 GMT 51.294479 9.163637 20,000 6 443 0
2019-06-18 10:51:34 GMT 51.288651 9.162750 20,000 6 443 0
2019-06-18 10:51:29 GMT 51.279694 9.161187 20,000 6 443 0
2019-06-18 10:51:26 GMT 51.271454 9.159628 20,000 6 443 0
2019-06-18 10:51:23 GMT 51.267883 9.159109 20,000 6 443 0
2019-06-18 10:51:20 GMT 51.258957 9.157624 20,000 6 443 0
2019-06-18 10:51:17 GMT 51.254837 9.156882 20,000 6 443 0
2019-06-18 10:51:13 GMT 51.246937 9.155731 20,000 6 443 0
2019-06-18 10:51:10 GMT 51.241585 9.154663 20,000 6 443 0
2019-06-18 10:51:06 GMT 51.234230 9.153442 20,000 6 443 0
2019-06-18 10:51:03 GMT 51.225632 9.152131 20,000 6 443 64
2019-06-18 10:50:59 GMT 51.218590 9.150696 20,000 6 443 0
2019-06-18 10:50:56 GMT 51.212444 9.149857 20,000 6 443 0
2019-06-18 10:50:52 GMT 51.204346 9.148345 20,000 6 443 0
2019-06-18 10:50:48 GMT 51.197639 9.147263 20,000 6 443 0
2019-06-18 10:50:43 GMT 51.183578 9.144897 20,000 6 443 0
2019-06-18 10:50:40 GMT 51.169662 9.142685 20,000 6 443 0
2019-06-18 10:50:36 GMT 51.169662 9.142685 20,000 6 443 0
2019-06-18 10:50:32 GMT 51.164867 9.141769 20,000 6 443 0
2019-06-18 10:50:29 GMT 51.158024 9.140625 20,000 6 443 0
2019-06-18 10:50:26 GMT 51.151474 9.139363 20,000 6 443 0
2019-06-18 10:50:22 GMT 51.141171 9.137878 20,000 6 443 0
2019-06-18 10:50:19 GMT 51.137558 9.137136 20,000 6 443 0
2019-06-18 10:50:15 GMT 51.128834 9.135818 20,000 5 444 0
2019-06-18 10:50:12 GMT 51.122131 9.134612 20,000 6 443 0
2019-06-18 10:50:09 GMT 51.117142 9.133721 20,000 6 443 0
2019-06-18 10:50:02 GMT 51.100346 9.130783 20,000 6 445 0
2019-06-18 10:49:59 GMT 51.095169 9.130158 20,000 6 444 0
2019-06-18 10:49:54 GMT 51.084000 9.128377 20,000 6 444 0
2019-06-18 10:49:51 GMT 51.078873 9.127412 20,000 6 444 0
2019-06-18 10:49:48 GMT 51.074570 9.126669 20,000 5 445 0
2019-06-18 10:49:45 GMT 51.065662 9.125290 20,000 5 445 0
2019-06-18 10:49:38 GMT 51.053650 9.123403 20,000 5 445 0
2019-06-18 10:49:35 GMT 51.047787 9.122543 20,000 5 444 0
2019-06-18 10:49:32 GMT 51.041595 9.121399 20,000 5 445 0
2019-06-18 10:49:29 GMT 51.032703 9.120178 20,000 5 445 0
2019-06-18 10:49:25 GMT 51.026505 9.119320 20,000 5 444 64
2019-06-18 10:49:22 GMT 51.018784 9.117966 20,000 5 444 64
2019-06-18 10:49:18 GMT 51.011059 9.116592 20,000 5 443 0
2019-06-18 10:49:13 GMT 50.994392 9.113998 20,000 5 443 0
2019-06-18 10:49:10 GMT 50.994392 9.113998 20,000 5 443 0
2019-06-18 10:49:07 GMT 50.989086 9.113159 20,000 5 443 0
2019-06-18 10:49:03 GMT 50.981689 9.111897 20,000 5 443 0
2019-06-18 10:48:59 GMT 50.974319 9.110710 20,000 5 443 0
2019-06-18 10:48:56 GMT 50.968136 9.109726 20,000 5 443 0
2019-06-18 10:48:53 GMT 50.960594 9.108505 20,000 5 443 0
2019-06-18 10:48:50 GMT 50.956127 9.107666 20,000 5 444 0
2019-06-18 10:48:47 GMT 50.947540 9.106404 20,000 5 444 0
2019-06-18 10:48:43 GMT 50.939301 9.105068 20,000 5 444 0
2019-06-18 10:48:40 GMT 50.935692 9.104691 20,000 5 443 0
2019-06-18 10:48:36 GMT 50.926102 9.103165 20,000 5 444 0
2019-06-18 10:48:30 GMT 50.913578 9.100952 20,000 6 444 0
2019-06-18 10:48:27 GMT 50.909088 9.100243 20,000 6 444 0
2019-06-18 10:48:24 GMT 50.902725 9.099204 20,000 6 444 0
2019-06-18 10:48:20 GMT 50.892975 9.097719 20,000 6 443 0
2019-06-18 10:48:17 GMT 50.889679 9.096977 20,000 6 443 0
2019-06-18 10:48:14 GMT 50.882668 9.095993 20,000 6 443 0
2019-06-18 10:48:08 GMT 50.871002 9.093710 20,000 6 442 0
2019-06-18 10:48:05 GMT 50.861526 9.092226 20,000 5 443 0
2019-06-18 10:47:59 GMT 50.851757 9.090500 20,000 6 442 0
2019-06-18 10:47:56 GMT 50.846100 9.089628 20,000 6 442 0
2019-06-18 10:47:53 GMT 50.838730 9.088440 20,000 6 442 0
2019-06-18 10:47:50 GMT 50.833374 9.087549 20,000 6 443 0
2019-06-18 10:47:46 GMT 50.825500 9.086380 20,000 5 443 0
2019-06-18 10:47:43 GMT 50.816757 9.084803 20,000 5 443 0
2019-06-18 10:47:39 GMT 50.809341 9.083763 20,000 5 443 0
2019-06-18 10:47:35 GMT 50.801292 9.082565 20,000 5 443 0
2019-06-18 10:47:32 GMT 50.794785 9.081536 20,000 5 443 0
2019-06-18 10:47:28 GMT 50.786865 9.080349 20,000 5 443 0
2019-06-18 10:47:25 GMT 50.782059 9.079458 20,000 5 443 0
2019-06-18 10:47:21 GMT 50.773636 9.078270 20,000 5 443 0
2019-06-18 10:47:18 GMT 50.768661 9.077454 20,000 5 443 0
2019-06-18 10:47:15 GMT 50.761631 9.076538 20,000 5 443 0
2019-06-18 10:47:11 GMT 50.754272 9.075375 20,000 5 443 0
2019-06-18 10:47:07 GMT 50.744125 9.074020 20,000 5 443 0
2019-06-18 10:47:04 GMT 50.738983 9.073297 20,000 4 443 0
2019-06-18 10:47:01 GMT 50.733810 9.072777 20,000 4 443 0
2019-06-18 10:46:57 GMT 50.723690 9.071732 20,000 3 442 64
2019-06-18 10:46:54 GMT 50.719406 9.071426 20,000 3 442 64
2019-06-18 10:46:51 GMT 50.714428 9.070892 20,000 3 442 0
2019-06-18 10:46:48 GMT 50.698971 9.069366 19,975 3 441 -64
2019-06-18 10:46:45 GMT 50.698971 9.069366 19,975 3 442 0
2019-06-18 10:46:41 GMT 50.687988 9.068323 20,000 3 440 -64
2019-06-18 10:46:38 GMT 50.684216 9.067841 20,000 3 426 0
2019-06-18 10:46:34 GMT 50.677185 9.067135 20,000 3 439 -64
2019-06-18 10:46:31 GMT 50.672882 9.066764 20,000 3 439 -64
2019-06-18 10:46:28 GMT 50.665874 9.065948 20,000 3 426 0
2019-06-18 10:46:25 GMT 50.658966 9.065239 20,025 3 435 0
2019-06-18 10:46:22 GMT 50.647659 9.064227 20,000 3 430 128
2019-06-18 10:46:19 GMT 50.647659 9.064227 19,975 3 426 0
2019-06-18 10:46:15 GMT 50.640793 9.063504 19,975 3 427 0
2019-06-18 10:46:12 GMT 50.633751 9.062681 19,975 3 426 0
2019-06-18 10:46:09 GMT 50.617767 9.060974 20,000 4 392 0
2019-06-18 10:46:04 GMT 50.617767 9.060974 20,000 3 423 0
2019-06-18 10:45:58 GMT 50.605263 9.059564 20,000 3 419 0
2019-06-18 10:45:55 GMT 50.599396 9.059044 20,000 3 416 0
2019-06-18 10:45:52 GMT 50.594276 9.058524 20,000 4 400 0
2019-06-18 10:45:49 GMT 50.589111 9.057722 20,000 4 413 0
2019-06-18 10:45:43 GMT 50.576912 9.056298 20,000 4 400 0
2019-06-18 10:45:40 GMT 50.571762 9.055987 20,000 4 356 -64
2019-06-18 10:45:36 GMT 50.565079 9.055264 20,000 4 322 0
2019-06-18 10:45:33 GMT 50.561325 9.054758 20,000 4 394 0
2019-06-18 10:45:30 GMT 50.555126 9.054071 20,000 4 362 -64
2019-06-18 10:45:27 GMT 50.548416 9.053240 20,000 4 327 192
2019-06-18 10:45:22 GMT 50.541046 9.052518 20,000 4 376 0
2019-06-18 10:45:19 GMT 50.533665 9.051472 20,000 4 327 192
2019-06-18 10:45:13 GMT 50.524586 9.050656 20,000 4 369 0
2019-06-18 10:45:10 GMT 50.513763 9.049482 20,000 4 360 -64
2019-06-18 10:45:03 GMT 50.507217 9.048615 20,025 4 325 192
2019-06-18 10:45:00 GMT 50.503098 9.048109 20,025 4 322 0
2019-06-18 10:44:57 GMT 50.497772 9.047538 20,025 4 322 0
2019-06-18 10:44:53 GMT 50.486618 9.046374 20,025 4 337 -64
2019-06-18 10:44:50 GMT 50.486618 9.046374 20,025 4 329 128
2019-06-18 10:44:47 GMT 50.483204 9.045979 20,025 4 332 64
2019-06-18 10:44:44 GMT 50.478928 9.045507 20,025 4 323 128
2019-06-18 10:44:40 GMT 50.472401 9.044792 20,025 4 325 192
2019-06-18 10:44:36 GMT 50.466721 9.044272 20,000 4 322 0
2019-06-18 10:44:33 GMT 50.461555 9.043604 20,000 4 322 0
2019-06-18 10:44:30 GMT 50.457458 9.043266 20,000 6 322 0
2019-06-18 10:44:26 GMT 50.451279 9.042615 20,000 4 322 0
2019-06-18 10:44:23 GMT 50.446285 9.042268 20,000 4 322 0
2019-06-18 10:44:19 GMT 50.441986 9.042254 20,000 4 322 -64
2019-06-18 10:44:16 GMT 50.435989 9.041531 20,000 4 322 -64
2019-06-18 10:44:13 GMT 50.430679 9.041025 20,000 21 326 0
2019-06-18 10:44:10 GMT 50.426743 9.040519 20,000 4 322 -64
2019-06-18 10:44:07 GMT 50.422943 9.040013 20,025 11 323 128
2019-06-18 10:44:04 GMT 50.419327 9.039869 20,025 4 323 -64
2019-06-18 10:44:01 GMT 50.408859 9.038259 20,025 5 322 0
2019-06-18 10:43:58 GMT 50.408859 9.038259 20,025 7 323 64
2019-06-18 10:43:55 GMT 50.405460 9.037740 20,000 7 323 64
2019-06-18 10:43:52 GMT 50.396523 9.035513 20,000 37 328 0
2019-06-18 10:43:49 GMT 50.396523 9.035513 20,000 13 324 64
2019-06-18 10:43:46 GMT 50.392052 9.033657 20,000 29 327 0
2019-06-18 10:43:43 GMT 50.387054 9.030762 20,000 21 326 0
2019-06-18 10:43:40 GMT 50.382111 9.026931 20,000 29 327 0
2019-06-18 10:43:37 GMT 50.378132 9.023190 20,000 31 328 0
2019-06-18 10:43:34 GMT 50.375759 9.020295 20,000 37 328 0
2019-06-18 10:43:30 GMT 50.370918 9.014579 20,000 49 328 0
2019-06-18 10:43:26 GMT 50.362350 8.999659 20,000 54 328 -64
2019-06-18 10:43:23 GMT 50.362350 8.999659 20,000 55 328 -64
2019-06-18 10:43:20 GMT 50.361832 8.997947 20,000 57 328 -64
2019-06-18 10:43:17 GMT 50.359093 8.990899 20,000 62 327 0
2019-06-18 10:43:14 GMT 50.357372 8.985777 20,000 65 326 0
2019-06-18 10:43:11 GMT 50.355137 8.977018 20,000 77 324 0
2019-06-18 10:43:05 GMT 50.352577 8.956752 20,000 124 305 0
2019-06-18 10:43:02 GMT 50.352577 8.956752 20,000 85 321 0
2019-06-18 10:42:59 GMT 50.352390 8.951111 20,000 98 316 0
2019-06-18 10:42:56 GMT 50.352402 8.943160 20,000 98 316 0
2019-06-18 10:42:53 GMT 50.352905 8.938245 20,000 100 315 0
2019-06-18 10:42:50 GMT 50.353928 8.930177 20,000 110 311 0
2019-06-18 10:42:47 GMT 50.354950 8.923793 20,000 134 301 0
2019-06-18 10:42:44 GMT 50.356842 8.916056 20,000 114 309 0
2019-06-18 10:42:41 GMT 50.358215 8.911791 20,000 119 307 0
2019-06-18 10:42:38 GMT 50.360630 8.905458 20,000 120 307 0
2019-06-18 10:42:35 GMT 50.363750 8.898406 20,000 130 302 0
2019-06-18 10:42:31 GMT 50.367004 8.892565 20,000 134 301 0
2019-06-18 10:42:28 GMT 50.369751 8.888807 20,000 142 297 0
2019-06-18 10:42:25 GMT 50.373001 8.884831 20,000 142 297 0
2019-06-18 10:42:22 GMT 50.377296 8.880516 20,000 150 293 64
2019-06-18 10:42:15 GMT 50.388470 8.873687 19,975 171 285 0
2019-06-18 10:42:12 GMT 50.388470 8.873687 19,975 165 287 64
2019-06-18 10:42:09 GMT 50.393234 8.872327 19,975 174 285 0
2019-06-18 10:42:06 GMT 50.400620 8.871757 20,000 184 282 -128
2019-06-18 10:42:03 GMT 50.400620 8.871757 20,000 185 281 -128
2019-06-18 10:42:00 GMT 50.404907 8.872110 20,000 188 281 -64
2019-06-18 10:41:55 GMT 50.411774 8.873484 20,000 187 280 -64
2019-06-18 10:41:52 GMT 50.415749 8.874207 20,000 187 280 -64
2019-06-18 10:41:49 GMT 50.418823 8.875074 20,000 188 280 0
2019-06-18 10:41:46 GMT 50.423801 8.875914 20,000 187 280 0
2019-06-18 10:41:43 GMT 50.426922 8.876582 20,000 188 279 0
2019-06-18 10:41:37 GMT 50.433243 8.877965 20,000 188 279 0
2019-06-18 10:41:34 GMT 50.437363 8.878832 20,000 188 279 0
2019-06-18 10:41:31 GMT 50.442188 8.879997 20,000 188 295 0
2019-06-18 10:41:28 GMT 50.445099 8.880567 20,000 188 279 64
2019-06-18 10:41:25 GMT 50.450409 8.882229 20,000 188 279 64
2019-06-18 10:41:21 GMT 50.455036 8.883114 20,000 188 279 64
2019-06-18 10:41:18 GMT 50.458328 8.883820 20,000 188 282 0
2019-06-18 10:41:15 GMT 50.467422 8.885861 20,000 188 284 0
2019-06-18 10:41:12 GMT 50.467422 8.885861 20,000 188 283 0
2019-06-18 10:41:09 GMT 50.475128 8.887434 20,000 188 285 0
2019-06-18 10:41:06 GMT 50.475128 8.887434 20,000 188 285 0
2019-06-18 10:41:03 GMT 50.478378 8.888084 20,000 188 289 0
2019-06-18 10:41:00 GMT 50.482361 8.888951 20,000 188 289 0
2019-06-18 10:40:57 GMT 50.486275 8.889647 20,000 188 292 0
2019-06-18 10:40:53 GMT 50.491425 8.890831 20,000 188 295 0
2019-06-18 10:40:50 GMT 50.496098 8.891874 20,000 188 297 0
2019-06-18 10:40:47 GMT 50.500893 8.893061 20,000 188 381 -384
2019-06-18 10:40:43 GMT 50.504837 8.893722 20,000 188 305 0
2019-06-18 10:40:40 GMT 50.509140 8.894950 20,000 188 350 0
2019-06-18 10:40:36 GMT 50.514954 8.895962 20,000 188 314 0
2019-06-18 10:40:29 GMT 50.534180 8.900299 20,000 188 319 0
2019-06-18 10:40:21 GMT 50.537109 8.900950 20,000 188 327 0
2019-06-18 10:40:18 GMT 50.542416 8.902192 20,000 188 344 0
2019-06-18 10:40:12 GMT 50.552536 8.904419 20,000 188 378 -256
2019-06-18 10:40:09 GMT 50.555649 8.904925 20,000 188 343 0
2019-06-18 10:40:06 GMT 50.559586 8.905937 20,000 188 350 0
2019-06-18 10:40:02 GMT 50.572304 8.908650 20,000 188 353 0
2019-06-18 10:39:58 GMT 50.572304 8.908650 20,000 188 362 0
2019-06-18 10:39:54 GMT 50.579147 8.910061 20,000 188 362 0
2019-06-18 10:39:51 GMT 50.584671 8.911285 19,975 188 364 0
2019-06-18 10:39:48 GMT 50.589619 8.912436 20,000 188 370 -64
2019-06-18 10:39:44 GMT 50.594604 8.913309 22,850 188 393 -1344
2019-06-18 10:39:41 GMT 50.601288 8.914899 20,000 188 377 -256
2019-06-18 10:39:37 GMT 50.613316 8.917261 20,050 188 386 -704
2019-06-18 10:39:29 GMT 50.629303 8.920682 20,275 188 396 -1664
2019-06-18 10:39:26 GMT 50.629303 8.920682 20,275 188 394 -1472
2019-06-18 10:39:17 GMT 50.644409 8.923645 20,475 187 398 -2176
2019-06-18 10:39:14 GMT 50.657959 8.926169 22,850 188 400 -2624
2019-06-18 10:39:10 GMT 50.657959 8.926169 23,750 188 412 -4032
2019-06-18 10:39:06 GMT 50.663452 8.927259 21,200 188 403 -4224
2019-06-18 10:39:03 GMT 50.670296 8.928619 21,325 188 423 -3904
2019-06-18 10:39:00 GMT 50.675629 8.929806 21,875 188 403 -4224
2019-06-18 10:38:55 GMT 50.685425 8.931885 22,100 188 404 -4160
2019-06-18 10:38:48 GMT 50.696735 8.934250 23,950 188 404 -4096
2019-06-18 10:38:45 GMT 50.704464 8.936005 22,175 188 404 -4096
2019-06-18 10:38:42 GMT 50.709778 8.937007 22,525 188 406 -3840
2019-06-18 10:38:38 GMT 50.715961 8.938370 22,825 188 414 -4224
2019-06-18 10:38:33 GMT 50.724884 8.940421 23,100 188 414 -4160
2019-06-18 10:38:28 GMT 50.735050 8.942490 24,125 188 414 -4224
2019-06-18 10:38:25 GMT 50.742416 8.944059 23,700 188 414 -4224
2019-06-18 10:38:22 GMT 50.746536 8.945098 26,025 188 419 -4096
2019-06-18 10:38:16 GMT 50.756462 8.946915 24,250 188 422 -3968
2019-06-18 10:38:13 GMT 50.763866 8.948135 24,525 188 438 -3456
2019-06-18 10:38:10 GMT 50.774185 8.950369 24,950 188 423 -3840
2019-06-18 10:38:03 GMT 50.782059 8.951927 25,150 188 453 -4224
2019-06-18 10:38:00 GMT 50.789108 8.953338 25,300 188 426 -3776
2019-06-18 10:37:57 GMT 50.794403 8.954315 25,550 188 434 -3392
2019-06-18 10:37:54 GMT 50.799408 8.955342 25,925 188 434 -3392
2019-06-18 10:37:51 GMT 50.805084 8.956604 25,750 188 433 -3392
2019-06-18 10:37:48 GMT 50.811069 8.958130 25,900 188 436 -3392
2019-06-18 10:37:45 GMT 50.824474 8.960724 26,250 188 443 -4864
2019-06-18 10:37:42 GMT 50.824474 8.960724 26,375 188 440 -3648
2019-06-18 10:37:39 GMT 50.832718 8.962402 26,600 188 442 -4096
2019-06-18 10:37:36 GMT 50.838024 8.963623 26,825 188 443 -4736
2019-06-18 10:37:31 GMT 50.850220 8.965988 27,075 188 443 -5120
2019-06-18 10:37:28 GMT 50.852280 8.966551 29,825 188 450 -4608
2019-06-18 10:37:25 GMT 50.860336 8.968110 27,725 188 447 -4096
2019-06-18 10:37:21 GMT 50.866886 8.969421 28,000 188 447 -4096
2019-06-18 10:37:18 GMT 50.875637 8.971329 28,225 188 452 -4416
2019-06-18 10:37:15 GMT 50.878372 8.971673 29,450 188 450 -4480
2019-06-18 10:37:12 GMT 50.885597 8.973236 28,450 188 450 -4480
2019-06-18 10:37:09 GMT 50.893143 8.974762 33,950 188 433 -2816
2019-06-18 10:37:06 GMT 50.897099 8.975601 29,825 188 432 -4864
2019-06-18 10:37:03 GMT 50.904282 8.977166 29,825 188 449 -6976
2019-06-18 10:36:59 GMT 50.921127 8.980804 29,600 188 456 -5760
2019-06-18 10:36:55 GMT 50.921127 8.980804 30,975 188 445 -7040
2019-06-18 10:36:52 GMT 50.934479 8.983688 30,375 188 455 -6208
2019-06-18 10:36:48 GMT 50.934479 8.983688 31,925 188 434 -6080
2019-06-18 10:36:44 GMT 50.942551 8.985406 30,800 188 454 -6336
2019-06-18 10:36:40 GMT 50.953705 8.987656 31,400 188 446 -7040
2019-06-18 10:36:37 GMT 50.958035 8.988647 32,200 188 445 -7040
2019-06-18 10:36:33 GMT 50.971756 8.991567 32,250 188 443 -6976
2019-06-18 10:36:30 GMT 50.971756 8.991567 33,375 188 437 -6784
2019-06-18 10:36:27 GMT 50.977402 8.992615 32,800 188 434 -6080
2019-06-18 10:36:23 GMT 50.987877 8.995056 33,475 188 436 -6464
2019-06-18 10:36:20 GMT 50.996998 8.996887 33,875 188 432 -4288
2019-06-18 10:36:16 GMT 51.001095 8.997955 33,925 188 439 0
2019-06-18 10:36:13 GMT 51.006962 8.999176 34,775 188 438 -704
2019-06-18 10:36:10 GMT 51.012772 9.000549 34,475 188 432 -3264
2019-06-18 10:36:07 GMT 51.018951 9.001885 34,650 188 433 -2816
2019-06-18 10:36:04 GMT 51.022888 9.002554 34,950 188 439 0
2019-06-18 10:36:01 GMT 51.030796 9.004440 34,900 188 437 -768
2019-06-18 10:35:58 GMT 51.034927 9.005152 34,925 188 436 -1024
2019-06-18 10:35:55 GMT 51.043350 9.007082 34,975 188 440 0
2019-06-18 10:35:51 GMT 51.049347 9.008269 35,000 188 439 -64
2019-06-18 10:35:48 GMT 51.055328 9.009476 35,000 188 439 0
2019-06-18 10:35:44 GMT 51.070786 9.012680 35,000 188 439 0
2019-06-18 10:35:41 GMT 51.070786 9.012680 35,000 188 439 0
2019-06-18 10:35:38 GMT 51.076138 9.013901 35,000 188 439 0
2019-06-18 10:35:35 GMT 51.081619 9.014950 35,000 188 439 0
2019-06-18 10:35:32 GMT 51.087635 9.016342 35,000 188 440 0
2019-06-18 10:35:28 GMT 51.097736 9.018402 35,000 188 440 0
2019-06-18 10:35:25 GMT 51.101532 9.019404 35,000 188 440 0
2019-06-18 10:35:21 GMT 51.109589 9.021112 35,000 188 440 0
2019-06-18 10:35:18 GMT 51.115768 9.022299 35,000 188 440 0
2019-06-18 10:35:12 GMT 51.128998 9.025269 35,000 188 439 0
2019-06-18 10:35:08 GMT 51.138287 9.027100 35,000 188 439 0
2019-06-18 10:35:05 GMT 51.141861 9.028015 35,000 188 439 0
2019-06-18 10:35:02 GMT 51.148224 9.029351 35,000 188 439 0
2019-06-18 10:34:59 GMT 51.153030 9.030391 35,000 188 439 0
2019-06-18 10:34:56 GMT 51.159885 9.031754 35,000 188 440 0
2019-06-18 10:34:53 GMT 51.164867 9.032974 35,000 188 440 0
2019-06-18 10:34:49 GMT 51.176178 9.035568 35,000 188 440 0
2019-06-18 10:34:46 GMT 51.180321 9.036407 35,000 188 440 0
2019-06-18 10:34:43 GMT 51.186840 9.037781 35,000 188 440 0
2019-06-18 10:34:39 GMT 51.194893 9.039459 35,000 188 440 0
2019-06-18 10:34:36 GMT 51.202103 9.041006 35,000 188 441 0
2019-06-18 10:34:33 GMT 51.206085 9.041748 35,000 188 440 -64
2019-06-18 10:34:30 GMT 51.211742 9.043121 35,000 188 441 0
2019-06-18 10:34:27 GMT 51.220310 9.044952 35,000 188 440 0
2019-06-18 10:34:24 GMT 51.224079 9.045639 35,000 188 442 0
2019-06-18 10:34:20 GMT 51.232319 9.047546 35,000 188 440 0
2019-06-18 10:34:17 GMT 51.238697 9.048767 35,000 188 441 0
2019-06-18 10:34:14 GMT 51.245041 9.050285 35,000 188 442 0
2019-06-18 10:34:11 GMT 51.252941 9.052048 35,000 188 441 0
2019-06-18 10:34:08 GMT 51.256348 9.052734 35,000 188 442 0
2019-06-18 10:34:05 GMT 51.268204 9.055258 35,000 188 443 0
2019-06-18 10:33:59 GMT 51.274200 9.056520 35,000 188 443 0
2019-06-18 10:33:56 GMT 51.281944 9.058228 35,000 188 443 0
2019-06-18 10:33:53 GMT 51.286415 9.059219 35,000 188 443 0
2019-06-18 10:33:50 GMT 51.294655 9.060974 35,000 188 443 64
2019-06-18 10:33:46 GMT 51.303223 9.062830 35,000 188 443 0
2019-06-18 10:33:43 GMT 51.309769 9.064240 35,000 188 443 64
2019-06-18 10:33:39 GMT 51.315414 9.065552 35,000 188 441 128
2019-06-18 10:33:34 GMT 51.327438 9.068175 35,000 188 441 64
2019-06-18 10:33:31 GMT 51.332081 9.069214 35,000 188 441 64
2019-06-18 10:33:28 GMT 51.337921 9.070550 35,000 188 438 768
2019-06-18 10:33:25 GMT 51.344101 9.071960 35,000 188 440 192
2019-06-18 10:33:22 GMT 51.351822 9.073639 35,000 188 442 0
2019-06-18 10:33:16 GMT 51.362091 9.075746 34,900 188 442 64
2019-06-18 10:33:13 GMT 51.370533 9.077606 34,825 188 438 576
2019-06-18 10:33:10 GMT 51.375824 9.078641 35,000 188 441 192
2019-06-18 10:33:07 GMT 51.381660 9.079971 34,900 188 438 768
2019-06-18 10:33:04 GMT 51.396278 9.083252 34,900 188 438 832
2019-06-18 10:33:00 GMT 51.396278 9.083252 34,875 188 438 896
2019-06-18 10:32:57 GMT 51.407589 9.085693 34,825 188 439 960
2019-06-18 10:32:53 GMT 51.407589 9.085693 34,775 188 440 960
2019-06-18 10:32:50 GMT 51.415329 9.087178 34,750 188 440 960
2019-06-18 10:32:47 GMT 51.419952 9.088217 34,650 188 443 1088
2019-06-18 10:32:43 GMT 51.430260 9.090652 34,625 188 440 960
2019-06-18 10:32:40 GMT 51.435059 9.091706 34,450 188 443 1024
2019-06-18 10:32:34 GMT 51.448288 9.094601 34,425 188 444 1088
2019-06-18 10:32:31 GMT 51.452744 9.095459 34,350 188 444 1088
2019-06-18 10:32:28 GMT 51.459961 9.096985 34,325 188 443 1088
2019-06-18 10:32:25 GMT 51.466324 9.098387 33,925 188 445 1152
2019-06-18 10:32:22 GMT 51.470764 9.099426 34,200 188 445 1152
2019-06-18 10:32:19 GMT 51.478821 9.101134 34,225 188 445 1152
2019-06-18 10:32:16 GMT 51.482445 9.101944 34,100 188 446 1344
2019-06-18 10:32:13 GMT 51.488449 9.103165 34,075 188 447 1344
2019-06-18 10:32:09 GMT 51.496506 9.104919 34,000 188 448 1344
2019-06-18 10:32:06 GMT 51.505096 9.106627 33,800 188 449 1088
2019-06-18 10:32:03 GMT 51.509216 9.107666 33,850 188 449 1024
2019-06-18 10:32:00 GMT 51.514893 9.108854 33,650 188 448 576
2019-06-18 10:31:57 GMT 51.522263 9.110561 33,775 188 449 896
2019-06-18 10:31:54 GMT 51.529633 9.112120 33,725 188 449 704
2019-06-18 10:31:51 GMT 51.539940 9.114304 33,650 188 448 576
2019-06-18 10:31:48 GMT 51.545105 9.115386 33,675 188 448 512
2019-06-18 10:31:42 GMT 51.551102 9.116574 33,525 188 447 704
2019-06-18 10:31:38 GMT 51.559845 9.118281 33,550 188 447 576
2019-06-18 10:31:35 GMT 51.568451 9.119989 33,500 188 448 704
2019-06-18 10:31:32 GMT 51.573921 9.121170 33,525 188 448 704
2019-06-18 10:31:28 GMT 51.584061 9.123626 33,475 188 448 704
2019-06-18 10:31:25 GMT 51.588181 9.124665 33,250 188 448 1088
2019-06-18 10:31:22 GMT 51.594219 9.125824 33,400 188 447 896
2019-06-18 10:31:18 GMT 51.610001 9.129944 33,200 188 448 576
2019-06-18 10:31:14 GMT 51.610001 9.129944 33,125 188 448 704
2019-06-18 10:31:11 GMT 51.622009 9.132534 33,200 188 448 960
2019-06-18 10:31:08 GMT 51.622009 9.132534 33,050 188 448 832
2019-06-18 10:31:04 GMT 51.630753 9.134241 33,075 188 448 768
2019-06-18 10:31:01 GMT 51.638123 9.135948 33,100 188 448 576
2019-06-18 10:30:57 GMT 51.653248 9.139023 33,025 188 448 640
2019-06-18 10:30:53 GMT 51.653248 9.139023 32,775 188 449 704
2019-06-18 10:30:50 GMT 51.659088 9.140402 32,925 188 448 832
2019-06-18 10:30:47 GMT 51.664745 9.141769 32,775 188 448 1088
2019-06-18 10:30:44 GMT 51.672455 9.143520 32,875 188 448 1088
2019-06-18 10:30:40 GMT 51.682434 9.145737 32,800 188 449 1152
2019-06-18 10:30:37 GMT 51.686718 9.146576 32,750 188 449 1152
2019-06-18 10:30:34 GMT 51.692551 9.147974 32,725 188 449 1152
2019-06-18 10:30:31 GMT 51.698547 9.149384 32,600 188 450 960
2019-06-18 10:30:28 GMT 51.708344 9.151389 32,550 188 450 640
2019-06-18 10:30:24 GMT 51.714184 9.152603 32,425 188 448 576
2019-06-18 10:30:21 GMT 51.724472 9.154816 32,100 188 449 640
2019-06-18 10:30:18 GMT 51.733749 9.157104 32,450 188 449 768
2019-06-18 10:30:14 GMT 51.733749 9.157104 32,425 188 449 768
2019-06-18 10:30:11 GMT 51.739609 9.158292 32,400 188 449 832
2019-06-18 10:30:08 GMT 51.758148 9.162375 30,575 189 444 1216
2019-06-18 10:30:02 GMT 51.765530 9.164124 32,250 188 448 576
2019-06-18 10:29:59 GMT 51.765530 9.164124 32,075 188 448 576
2019-06-18 10:29:53 GMT 51.778378 9.166870 32,175 188 446 640
2019-06-18 10:29:50 GMT 51.782661 9.167709 32,150 188 447 576
2019-06-18 10:29:47 GMT 51.788361 9.168907 32,125 188 446 576
2019-06-18 10:29:43 GMT 51.797607 9.171134 32,075 189 445 832
2019-06-18 10:29:40 GMT 51.804634 9.172668 32,025 188 444 896
2019-06-18 10:29:36 GMT 51.812393 9.174401 32,000 189 445 832
2019-06-18 10:29:33 GMT 51.816147 9.175291 31,925 189 445 960
2019-06-18 10:29:30 GMT 51.824558 9.177170 31,900 189 445 960
2019-06-18 10:29:27 GMT 51.827820 9.177815 31,825 188 444 960
2019-06-18 10:29:23 GMT 51.842575 9.181137 31,800 188 445 640
2019-06-18 10:29:17 GMT 51.849609 9.182863 31,700 188 444 960
2019-06-18 10:29:14 GMT 51.854584 9.183655 31,400 188 444 1088
2019-06-18 10:29:10 GMT 51.863708 9.185715 31,675 188 444 1088
2019-06-18 10:29:07 GMT 51.868317 9.186783 31,550 188 444 1088
2019-06-18 10:29:04 GMT 51.874371 9.188156 31,500 188 444 1024
2019-06-18 10:29:01 GMT 51.883255 9.190063 31,500 188 444 1024
2019-06-18 10:28:58 GMT 51.887558 9.191103 31,375 188 444 896
2019-06-18 10:28:55 GMT 51.893734 9.192418 31,300 188 444 960
2019-06-18 10:28:52 GMT 51.899918 9.193802 31,150 189 444 960
2019-06-18 10:28:49 GMT 51.905746 9.195164 31,275 188 444 960
2019-06-18 10:28:46 GMT 51.913467 9.196930 31,250 188 444 1024
2019-06-18 10:28:43 GMT 51.916763 9.197769 31,225 188 444 960
2019-06-18 10:28:40 GMT 51.925484 9.199480 31,150 188 444 1088
2019-06-18 10:28:37 GMT 51.929440 9.200500 31,125 188 444 960
2019-06-18 10:28:34 GMT 51.938053 9.202227 30,550 188 446 640
2019-06-18 10:28:31 GMT 51.941620 9.203110 31,000 188 444 960
2019-06-18 10:28:28 GMT 51.948349 9.204483 30,950 188 444 960
2019-06-18 10:28:24 GMT 51.957932 9.206700 30,875 188 445 1152
2019-06-18 10:28:21 GMT 51.962772 9.207877 30,825 188 445 1152
2019-06-18 10:28:18 GMT 51.968765 9.209290 30,775 188 445 1280
2019-06-18 10:28:15 GMT 51.974594 9.210467 30,700 188 445 1344
2019-06-18 10:28:12 GMT 51.981125 9.211655 30,625 188 446 1408
2019-06-18 10:28:09 GMT 51.987118 9.213213 30,400 188 446 1408
2019-06-18 10:28:06 GMT 51.992798 9.214401 30,400 188 447 1408
2019-06-18 10:28:02 GMT 52.000713 9.216274 30,125 188 446 640
2019-06-18 10:27:59 GMT 52.014072 9.219256 30,150 188 447 768
2019-06-18 10:27:56 GMT 52.014072 9.219256 30,300 188 447 896
2019-06-18 10:27:53 GMT 52.020767 9.220734 30,250 188 447 896
2019-06-18 10:27:50 GMT 52.025391 9.221954 30,150 188 447 640
2019-06-18 10:27:47 GMT 52.031570 9.223328 30,175 188 447 640
2019-06-18 10:27:44 GMT 52.038803 9.224854 29,850 188 446 640
2019-06-18 10:27:40 GMT 52.046356 9.226608 29,975 188 444 1088
2019-06-18 10:27:36 GMT 52.053223 9.228123 29,975 189 444 896
2019-06-18 10:27:33 GMT 52.060776 9.229660 29,800 189 445 768
2019-06-18 10:27:30 GMT 52.065582 9.230881 30,000 189 444 896
2019-06-18 10:27:27 GMT 52.072960 9.232439 29,625 188 445 1088
2019-06-18 10:27:24 GMT 52.076752 9.233322 29,750 188 445 1216
2019-06-18 10:27:21 GMT 52.084457 9.235186 29,825 188 445 1216
2019-06-18 10:27:18 GMT 52.090805 9.236374 29,775 188 445 1216
2019-06-18 10:27:15 GMT 52.098175 9.238129 29,675 188 445 1216
2019-06-18 10:27:12 GMT 52.101974 9.238968 29,650 188 445 1088
2019-06-18 10:27:09 GMT 52.109344 9.240341 29,550 189 445 1088
2019-06-18 10:27:06 GMT 52.116028 9.242020 29,350 188 436 704
2019-06-18 10:27:03 GMT 52.121887 9.243269 29,475 188 445 1088
2019-06-18 10:27:00 GMT 52.128220 9.244760 29,400 188 445 1088
2019-06-18 10:26:57 GMT 52.133572 9.246015 29,350 188 445 1024
2019-06-18 10:26:54 GMT 52.141624 9.247742 29,300 188 445 1024
2019-06-18 10:26:48 GMT 52.153290 9.250107 29,200 188 445 960
2019-06-18 10:26:43 GMT 52.163086 9.252319 29,050 189 444 1152
2019-06-18 10:26:39 GMT 52.170116 9.253863 29,025 189 444 1216
2019-06-18 10:26:36 GMT 52.178028 9.255981 29,000 189 444 1216
2019-06-18 10:26:33 GMT 52.182312 9.256845 28,725 188 433 832
2019-06-18 10:26:30 GMT 52.188309 9.258499 28,850 189 444 576
2019-06-18 10:26:27 GMT 52.193481 9.259567 28,825 189 444 768
2019-06-18 10:26:24 GMT 52.201351 9.261475 28,775 189 442 192
2019-06-18 10:26:20 GMT 52.207901 9.263000 28,775 189 441 128
2019-06-18 10:26:17 GMT 52.214081 9.264374 28,750 189 442 128
2019-06-18 10:26:13 GMT 52.222641 9.266281 28,775 188 440 192
2019-06-18 10:26:10 GMT 52.236740 9.269333 28,725 188 433 1152
2019-06-18 10:26:07 GMT 52.239807 9.269867 28,725 188 437 512
2019-06-18 10:26:01 GMT 52.245670 9.271441 28,675 188 435 768
2019-06-18 10:25:58 GMT 52.252514 9.272775 28,625 188 434 832
2019-06-18 10:25:55 GMT 52.259216 9.274521 28,575 188 434 832
2019-06-18 10:25:52 GMT 52.264206 9.275513 28,525 188 433 960
2019-06-18 10:25:49 GMT 52.270901 9.277091 28,500 188 433 896
2019-06-18 10:25:45 GMT 52.278442 9.278641 27,875 188 432 1152
2019-06-18 10:25:41 GMT 52.287689 9.280701 27,900 188 433 1216
2019-06-18 10:25:38 GMT 52.291290 9.281564 27,900 188 433 1408
2019-06-18 10:25:35 GMT 52.297668 9.282741 28,225 188 433 1536
2019-06-18 10:25:30 GMT 52.308655 9.285331 28,075 188 433 1344
2019-06-18 10:25:27 GMT 52.313095 9.286346 27,975 188 433 1536
2019-06-18 10:25:24 GMT 52.319275 9.287567 27,950 188 433 1280
2019-06-18 10:25:20 GMT 52.326508 9.289093 27,875 188 433 1152
2019-06-18 10:25:17 GMT 52.332676 9.290667 27,725 189 421 1216
2019-06-18 10:25:14 GMT 52.346420 9.293747 27,550 189 433 832
2019-06-18 10:25:11 GMT 52.346420 9.293747 27,600 189 433 1344
2019-06-18 10:25:05 GMT 52.357067 9.296317 27,550 189 433 1152
2019-06-18 10:25:02 GMT 52.364594 9.298019 27,475 189 433 832
2019-06-18 10:24:59 GMT 52.370453 9.299393 27,450 189 432 640
2019-06-18 10:24:55 GMT 52.378529 9.301261 27,400 189 431 320
2019-06-18 10:24:49 GMT 52.388306 9.303513 27,400 189 427 320
2019-06-18 10:24:46 GMT 52.396545 9.305185 27,375 189 427 256
2019-06-18 10:24:43 GMT 52.399616 9.305891 27,325 189 424 704
2019-06-18 10:24:40 GMT 52.407028 9.307632 27,250 189 423 1024
2019-06-18 10:24:37 GMT 52.411816 9.308637 27,300 189 423 960
2019-06-18 10:24:34 GMT 52.417648 9.309998 26,375 189 419 832
2019-06-18 10:24:31 GMT 52.423683 9.311384 27,175 189 422 1216
2019-06-18 10:24:28 GMT 52.430531 9.312953 27,150 189 421 1216
2019-06-18 10:24:24 GMT 52.438248 9.314804 27,025 189 421 1216
2019-06-18 10:24:21 GMT 52.445099 9.316171 27,000 189 421 1216
2019-06-18 10:24:18 GMT 52.448730 9.317269 26,950 189 421 1216
2019-06-18 10:24:14 GMT 52.456787 9.318924 26,850 189 420 1152
2019-06-18 10:24:11 GMT 52.462463 9.320526 26,650 189 420 1088
2019-06-18 10:24:07 GMT 52.470703 9.322205 26,700 189 419 896
2019-06-18 10:24:04 GMT 52.477386 9.323959 26,675 189 419 832
2019-06-18 10:24:01 GMT 52.482193 9.325104 26,650 189 418 832
2019-06-18 10:23:58 GMT 52.488533 9.326529 26,550 189 416 832
2019-06-18 10:23:55 GMT 52.492489 9.327550 26,525 189 413 1408
2019-06-18 10:23:52 GMT 52.498856 9.329071 26,400 189 414 1216
2019-06-18 10:23:49 GMT 52.504669 9.330444 26,425 189 414 1088
2019-06-18 10:23:46 GMT 52.509155 9.331473 26,400 189 413 1408
2019-06-18 10:23:43 GMT 52.516697 9.333200 26,300 189 413 1280
2019-06-18 10:23:40 GMT 52.522522 9.334717 26,275 189 413 1408
2019-06-18 10:23:37 GMT 52.527496 9.335789 26,225 189 413 1408
2019-06-18 10:23:34 GMT 52.531998 9.336624 26,175 189 413 1472
2019-06-18 10:23:31 GMT 52.538681 9.337997 26,050 188 412 1280
2019-06-18 10:23:27 GMT 52.544350 9.339242 25,900 189 413 1408
2019-06-18 10:23:24 GMT 52.551041 9.340744 25,550 188 412 1280
2019-06-18 10:23:21 GMT 52.555660 9.341753 25,825 189 413 1344
2019-06-18 10:23:18 GMT 52.561340 9.343166 25,800 188 412 1216
2019-06-18 10:23:14 GMT 52.570278 9.345049 25,650 188 411 960
2019-06-18 10:23:11 GMT 52.574745 9.346069 25,650 188 411 1024
2019-06-18 10:23:08 GMT 52.580566 9.347246 25,550 188 410 832
2019-06-18 10:23:05 GMT 52.586060 9.348450 25,500 188 408 768
2019-06-18 10:23:02 GMT 52.591042 9.349522 25,500 189 407 896
2019-06-18 10:22:59 GMT 52.598602 9.351425 25,475 189 408 832
2019-06-18 10:22:56 GMT 52.605099 9.352975 25,400 192 403 1472
2019-06-18 10:22:53 GMT 52.608219 9.353603 25,375 190 405 1216
2019-06-18 10:22:50 GMT 52.613014 9.355172 25,275 190 405 1216
2019-06-18 10:22:47 GMT 52.620045 9.357056 25,225 191 404 1344
2019-06-18 10:22:44 GMT 52.624325 9.358468 24,975 195 403 1600
2019-06-18 10:22:40 GMT 52.631214 9.360665 25,100 192 403 1536
2019-06-18 10:22:37 GMT 52.638432 9.363255 24,950 194 403 1664
2019-06-18 10:22:34 GMT 52.644241 9.365463 24,875 195 402 1536
2019-06-18 10:22:31 GMT 52.649551 9.367523 24,575 195 402 1536
2019-06-18 10:22:27 GMT 52.657471 9.370946 24,675 196 402 1408
2019-06-18 10:22:24 GMT 52.661224 9.372864 24,525 197 402 1408
2019-06-18 10:22:18 GMT 52.672043 9.378165 24,525 197 402 1408
2019-06-18 10:22:15 GMT 52.682377 9.383187 24,350 197 401 1344
2019-06-18 10:22:09 GMT 52.693687 9.388445 24,175 197 399 1152
2019-06-18 10:22:06 GMT 52.693687 9.388445 24,250 197 400 1280
2019-06-18 10:22:03 GMT 52.703976 9.393311 24,150 197 400 1216
2019-06-18 10:22:00 GMT 52.703976 9.393311 24,100 197 394 1280
2019-06-18 10:21:56 GMT 52.711212 9.396896 24,075 197 398 1152
2019-06-18 10:21:53 GMT 52.715836 9.399109 24,025 197 397 1152
2019-06-18 10:21:50 GMT 52.721329 9.401855 23,950 197 397 1152
2019-06-18 10:21:47 GMT 52.727509 9.404755 23,650 197 396 1216
2019-06-18 10:21:44 GMT 52.733688 9.407730 23,825 197 396 1216
2019-06-18 10:21:41 GMT 52.736755 9.409409 23,775 197 395 1216
2019-06-18 10:21:38 GMT 52.743454 9.412301 23,000 197 388 1600
2019-06-18 10:21:35 GMT 52.749481 9.415436 23,600 197 393 1408
2019-06-18 10:21:28 GMT 52.761841 9.421404 23,500 197 392 1408
2019-06-18 10:21:24 GMT 52.768356 9.424543 23,325 197 391 1664
2019-06-18 10:21:21 GMT 52.771290 9.425877 22,975 197 391 1728
2019-06-18 10:21:18 GMT 52.776272 9.428467 23,275 197 391 1728
2019-06-18 10:21:15 GMT 52.788620 9.434280 23,075 197 391 1536
2019-06-18 10:21:12 GMT 52.788620 9.434280 22,825 197 387 1600
2019-06-18 10:21:09 GMT 52.792557 9.436340 22,775 197 389 1408
2019-06-18 10:21:06 GMT 52.799271 9.439296 22,875 197 389 1408
2019-06-18 10:21:03 GMT 52.804066 9.441886 22,775 197 388 1536
2019-06-18 10:20:59 GMT 52.816589 9.447861 22,650 197 387 1664
2019-06-18 10:20:56 GMT 52.820869 9.449969 22,650 197 386 1408
2019-06-18 10:20:53 GMT 52.820869 9.449969 22,550 197 386 1472
2019-06-18 10:20:50 GMT 52.827072 9.452667 22,475 197 386 1536
2019-06-18 10:20:46 GMT 52.833576 9.456090 22,375 197 386 1408
2019-06-18 10:20:43 GMT 52.838047 9.458365 22,325 197 385 1344
2019-06-18 10:20:40 GMT 52.844055 9.461288 22,225 197 385 1408
2019-06-18 10:20:37 GMT 52.848541 9.463501 22,225 197 384 1408
2019-06-18 10:20:34 GMT 52.851791 9.464874 22,075 197 383 1472
2019-06-18 10:20:31 GMT 52.857784 9.467939 22,075 197 383 1536
2019-06-18 10:20:28 GMT 52.863277 9.470372 21,975 197 382 1536
2019-06-18 10:20:25 GMT 52.867931 9.472569 21,825 197 381 1536
2019-06-18 10:20:22 GMT 52.873398 9.475327 21,800 197 382 1536
2019-06-18 10:20:19 GMT 52.878571 9.477768 21,650 197 380 1600
2019-06-18 10:20:16 GMT 52.883717 9.480495 21,225 197 379 1600
2019-06-18 10:20:13 GMT 52.889908 9.483398 21,575 197 379 1664
2019-06-18 10:20:10 GMT 52.898285 9.487558 21,475 197 379 1664
2019-06-18 10:20:07 GMT 52.898285 9.487558 21,250 197 378 1664
2019-06-18 10:20:04 GMT 52.903454 9.489912 21,350 197 379 1600
2019-06-18 10:20:01 GMT 52.908966 9.492493 21,200 197 378 1728
2019-06-18 10:19:58 GMT 52.912205 9.494228 21,200 197 378 1728
2019-06-18 10:19:55 GMT 52.918213 9.496994 21,125 197 377 1664
2019-06-18 10:19:52 GMT 52.924911 9.500192 21,000 197 376 1408
2019-06-18 10:19:49 GMT 52.928879 9.502106 20,950 197 376 1408
2019-06-18 10:19:46 GMT 52.938126 9.506760 20,825 197 374 1600
2019-06-18 10:19:43 GMT 52.938126 9.506760 20,775 197 374 1600
2019-06-18 10:19:40 GMT 52.944672 9.509811 20,675 197 373 1984
2019-06-18 10:19:34 GMT 52.954102 9.514618 20,425 197 373 2176
2019-06-18 10:19:31 GMT 52.957352 9.516220 20,325 197 373 2240
2019-06-18 10:19:28 GMT 52.963211 9.518738 20,275 197 373 2240
2019-06-18 10:19:23 GMT 52.972301 9.523263 20,025 197 373 1920
2019-06-18 10:19:20 GMT 52.977283 9.525617 19,950 197 372 1664
2019-06-18 10:19:17 GMT 52.980869 9.527344 19,925 197 373 1728
2019-06-18 10:19:14 GMT 52.986008 9.529953 19,850 197 372 1664
2019-06-18 10:19:11 GMT 52.990494 9.532166 19,750 197 371 1664
2019-06-18 10:19:08 GMT 52.997177 9.535446 19,575 197 371 1664
2019-06-18 10:19:05 GMT 53.007294 9.540405 19,475 197 369 1664
2019-06-18 10:19:01 GMT 53.007294 9.540405 19,375 197 368 1664
2019-06-18 10:18:58 GMT 53.012802 9.542960 19,375 197 368 1664
2019-06-18 10:18:55 GMT 53.016403 9.544830 19,075 197 367 1664
2019-06-18 10:18:52 GMT 53.027206 9.550018 19,150 197 366 1728
2019-06-18 10:18:49 GMT 53.032215 9.552612 19,050 197 366 1728
2019-06-18 10:18:46 GMT 53.032215 9.552612 19,025 197 365 1792
2019-06-18 10:18:43 GMT 53.036499 9.554672 18,975 197 364 1792
2019-06-18 10:18:40 GMT 53.042690 9.557713 18,850 197 363 1856
2019-06-18 10:18:37 GMT 53.046616 9.559631 18,775 197 363 1856
2019-06-18 10:18:34 GMT 53.050743 9.561480 18,650 197 362 1984
2019-06-18 10:18:31 GMT 53.055359 9.563904 18,600 197 361 1984
2019-06-18 10:18:28 GMT 53.061218 9.566650 18,475 197 361 1984
2019-06-18 10:18:24 GMT 53.068085 9.570084 18,325 197 359 1920
2019-06-18 10:18:20 GMT 53.073044 9.572466 18,275 197 360 1920
2019-06-18 10:18:17 GMT 53.078720 9.575213 18,100 197 359 1920
2019-06-18 10:18:14 GMT 53.082306 9.576939 18,025 197 358 1920
2019-06-18 10:18:11 GMT 53.089005 9.580231 17,850 197 356 2048
2019-06-18 10:18:08 GMT 53.096737 9.584036 17,750 197 356 1984
2019-06-18 10:18:05 GMT 53.096737 9.584036 17,700 197 356 2048
2019-06-18 10:18:02 GMT 53.101913 9.586591 17,525 197 355 2240
2019-06-18 10:17:58 GMT 53.113220 9.592085 17,375 197 355 2176
2019-06-18 10:17:55 GMT 53.113220 9.592085 17,325 197 355 2176
2019-06-18 10:17:52 GMT 53.118011 9.594457 17,200 197 354 2176
2019-06-18 10:17:49 GMT 53.122330 9.596558 17,150 197 354 2112
2019-06-18 10:17:45 GMT 53.129517 9.600167 17,000 197 354 2112
2019-06-18 10:17:42 GMT 53.133499 9.602208 16,825 197 353 2048
2019-06-18 10:17:39 GMT 53.137619 9.604091 16,475 197 352 2368
2019-06-18 10:17:36 GMT 53.143429 9.606978 16,675 197 352 2240
2019-06-18 10:17:32 GMT 53.149807 9.610129 16,525 197 352 2368
2019-06-18 10:17:29 GMT 53.158722 9.614371 16,300 197 352 2624
2019-06-18 10:17:26 GMT 53.158722 9.614371 16,275 197 352 2624
2019-06-18 10:17:23 GMT 53.164192 9.617319 16,175 197 352 2688
2019-06-18 10:17:19 GMT 53.169685 9.619904 15,700 197 349 1856
2019-06-18 10:17:16 GMT 53.173130 9.621600 15,850 197 351 1984
2019-06-18 10:17:13 GMT 53.179832 9.624993 15,775 197 350 1856
2019-06-18 10:17:09 GMT 53.183605 9.626770 15,600 197 348 1920
2019-06-18 10:17:06 GMT 53.189281 9.629517 15,575 197 348 1920
2019-06-18 10:17:03 GMT 53.194748 9.632263 15,425 197 347 2048
2019-06-18 10:16:59 GMT 53.200783 9.635333 15,375 197 346 2112
2019-06-18 10:16:56 GMT 53.204041 9.636706 15,100 197 345 2240
2019-06-18 10:16:53 GMT 53.213490 9.641311 14,800 197 344 2816
2019-06-18 10:16:50 GMT 53.219467 9.644427 14,675 197 344 2816
2019-06-18 10:16:43 GMT 53.223267 9.646310 14,725 197 344 2816
2019-06-18 10:16:40 GMT 53.230133 9.649606 14,450 197 344 2752
2019-06-18 10:16:37 GMT 53.234940 9.651960 14,350 197 344 2624
2019-06-18 10:16:33 GMT 53.238876 9.654000 14,150 197 344 2432
2019-06-18 10:16:30 GMT 53.248684 9.658840 14,025 197 344 2304
2019-06-18 10:16:27 GMT 53.253983 9.661612 13,850 197 342 2176
2019-06-18 10:16:24 GMT 53.253983 9.661612 13,850 197 342 2176
2019-06-18 10:16:21 GMT 53.257763 9.663283 13,725 197 342 2176
2019-06-18 10:16:18 GMT 53.262222 9.665536 13,625 197 341 2304
2019-06-18 10:16:15 GMT 53.267715 9.668283 13,500 197 340 2432
2019-06-18 10:16:12 GMT 53.273029 9.671038 13,350 197 339 2496
2019-06-18 10:16:09 GMT 53.275780 9.672412 13,250 197 339 2432
2019-06-18 10:16:06 GMT 53.281631 9.675345 13,175 197 339 2432
2019-06-18 10:16:02 GMT 53.285927 9.677582 12,925 197 337 2112
2019-06-18 10:15:59 GMT 53.290535 9.679924 12,925 197 337 2112
2019-06-18 10:15:56 GMT 53.296234 9.682722 12,650 197 335 2176
2019-06-18 10:15:50 GMT 53.304611 9.686802 12,575 197 334 2240
2019-06-18 10:15:47 GMT 53.308594 9.688686 12,450 197 332 2432
2019-06-18 10:15:44 GMT 53.313721 9.690962 12,350 197 331 2752
2019-06-18 10:15:41 GMT 53.317162 9.692688 12,175 197 331 2816
2019-06-18 10:15:38 GMT 53.322330 9.695031 11,575 197 331 2752
2019-06-18 10:15:35 GMT 53.326939 9.697454 11,875 197 331 2688
2019-06-18 10:15:32 GMT 53.330708 9.699393 11,700 197 330 2432
2019-06-18 10:15:29 GMT 53.338947 9.703513 11,525 197 329 2112
2019-06-18 10:15:26 GMT 53.338947 9.703513 11,525 197 329 2048
2019-06-18 10:15:23 GMT 53.343750 9.705872 11,350 197 327 1792
2019-06-18 10:15:20 GMT 53.348557 9.708304 11,275 197 321 1152
2019-06-18 10:15:16 GMT 53.353912 9.710894 11,275 197 323 1280
2019-06-18 10:15:13 GMT 53.358856 9.713248 11,200 197 320 1088
2019-06-18 10:15:10 GMT 53.367966 9.717878 11,100 197 315 960
2019-06-18 10:15:07 GMT 53.367966 9.717878 11,100 197 314 960
2019-06-18 10:15:04 GMT 53.371399 9.719604 11,025 197 307 960
2019-06-18 10:15:01 GMT 53.374004 9.720800 11,025 197 307 960
2019-06-18 10:14:58 GMT 53.378937 9.723224 10,950 197 302 896
2019-06-18 10:14:55 GMT 53.382893 9.725243 10,875 197 297 896
2019-06-18 10:14:52 GMT 53.388386 9.727990 10,875 197 295 896
2019-06-18 10:14:49 GMT 53.390621 9.729040 10,825 197 292 960
2019-06-18 10:14:46 GMT 53.395603 9.731625 10,750 197 288 960
2019-06-18 10:14:40 GMT 53.406403 9.736956 10,100 197 270 2432
2019-06-18 10:14:37 GMT 53.406403 9.736956 10,600 197 278 1536
2019-06-18 10:14:34 GMT 53.410873 9.739218 10,500 197 276 1792
2019-06-18 10:14:31 GMT 53.414131 9.740753 10,400 197 274 2240
2019-06-18 10:14:26 GMT 53.419464 9.743304 10,200 197 271 2944
2019-06-18 10:14:23 GMT 53.426010 9.746599 10,000 197 271 2880
2019-06-18 10:14:17 GMT 53.429260 9.748247 9,725 197 271 2560
2019-06-18 10:14:14 GMT 53.434940 9.751174 9,575 197 267 2688
2019-06-18 10:14:10 GMT 53.438011 9.752709 9,475 197 269 2368
2019-06-18 10:14:07 GMT 53.443176 9.755310 9,325 197 268 2560
2019-06-18 10:14:04 GMT 53.448997 9.758202 9,150 197 266 2688
2019-06-18 10:14:01 GMT 53.448997 9.758202 9,100 197 266 2688
2019-06-18 10:13:58 GMT 53.452927 9.760332 8,650 197 266 2752
2019-06-18 10:13:55 GMT 53.455856 9.761666 8,900 197 266 2752
2019-06-18 10:13:52 GMT 53.460663 9.764256 8,475 197 264 2944
2019-06-18 10:13:49 GMT 53.463943 9.765796 8,525 197 264 2944
2019-06-18 10:13:46 GMT 53.467014 9.767492 8,375 197 264 2944
2019-06-18 10:13:43 GMT 53.470459 9.769027 8,275 197 264 2944
2019-06-18 10:13:40 GMT 53.473389 9.770612 7,975 197 263 2880
2019-06-18 10:13:37 GMT 53.477509 9.772810 7,850 198 262 2944
2019-06-18 10:13:31 GMT 53.484379 9.776055 7,600 197 261 2816
2019-06-18 10:13:28 GMT 53.488495 9.778146 7,500 197 260 2880
2019-06-18 10:13:24 GMT 53.495682 9.781756 7,225 197 259 2944
2019-06-18 10:13:21 GMT 53.495682 9.781756 7,100 197 259 3008
2019-06-18 10:13:18 GMT 53.499481 9.783482 6,975 197 259 3008
2019-06-18 10:13:15 GMT 53.502365 9.784816 6,900 196 258 3008
2019-06-18 10:13:11 GMT 53.507172 9.787092 6,600 196 257 3008
2019-06-18 10:13:08 GMT 53.510284 9.788269 6,150 196 256 2816
2019-06-18 10:13:05 GMT 53.514591 9.790192 6,350 196 256 2880
2019-06-18 10:13:02 GMT 53.520401 9.792899 6,150 196 255 2368
2019-06-18 10:12:56 GMT 53.524693 9.794958 5,950 197 251 1920
2019-06-18 10:12:53 GMT 53.526581 9.795803 5,725 198 250 1728
2019-06-18 10:12:50 GMT 53.530701 9.797686 5,850 198 249 1664
2019-06-18 10:12:47 GMT 53.533951 9.799569 5,775 202 245 1280
2019-06-18 10:12:43 GMT 53.538254 9.803414 5,675 211 240 1536
2019-06-18 10:12:40 GMT 53.540985 9.806994 5,550 218 236 1920
2019-06-18 10:12:37 GMT 53.543747 9.810556 5,475 223 234 2240
2019-06-18 10:12:33 GMT 53.546677 9.815735 5,175 229 233 2688
2019-06-18 10:12:29 GMT 53.549786 9.821939 5,000 231 231 3200
2019-06-18 10:12:26 GMT 53.551483 9.825701 5,075 231 231 3136
2019-06-18 10:12:22 GMT 53.554550 9.832214 4,725 231 232 3712
2019-06-18 10:12:18 GMT 53.557846 9.838728 4,450 231 232 3840
2019-06-18 10:12:15 GMT 53.559559 9.842215 4,200 231 233 4224
2019-06-18 10:12:12 GMT 53.561600 9.846497 4,075 231 235 4224
2019-06-18 10:12:07 GMT 53.565033 9.853481 3,600 231 239 3840
2019-06-18 10:12:04 GMT 53.567093 9.857797 3,600 231 239 3840
2019-06-18 10:12:01 GMT 53.568466 9.860700 3,500 231 240 3392
2019-06-18 10:11:58 GMT 53.573807 9.871539 3,175 231 239 3008
2019-06-18 10:11:54 GMT 53.573807 9.871539 3,075 231 238 2816
2019-06-18 10:11:51 GMT 53.575836 9.875453 2,975 231 237 2560
2019-06-18 10:11:47 GMT 53.579113 9.882202 2,775 231 230 1920
2019-06-18 10:11:44 GMT 53.580833 9.885595 2,725 231 228 1856
2019-06-18 10:11:41 GMT 53.582745 9.889392 2,675 231 226 1664
2019-06-18 10:11:38 GMT 53.584442 9.892953 2,550 232 218 896
2019-06-18 10:11:35 GMT 53.586327 9.897308 2,525 232 212 768
2019-06-18 10:11:32 GMT 53.588562 9.901899 2,425 232 203 1344
2019-06-18 10:11:29 GMT 53.589912 9.904498 2,325 232 202 1344
2019-06-18 10:11:26 GMT 53.591629 9.908412 2,325 232 202 1344
2019-06-18 10:11:23 GMT 53.593170 9.911364 2,250 231 196 1472
2019-06-18 10:11:20 GMT 53.595062 9.915475 2,225 232 195 1472
2019-06-18 10:11:17 GMT 53.597313 9.919766 2,075 231 188 1728
2019-06-18 10:11:11 GMT 53.600052 9.925598 1,950 231 185 1600
2019-06-18 10:11:08 GMT 53.602112 9.929914 1,850 231 180 1280
2019-06-18 10:11:05 GMT 53.603668 9.933132 1,775 231 176 1344
2019-06-18 10:11:02 GMT 53.605042 9.935721 1,675 231 170 1280
2019-06-18 10:10:59 GMT 53.606735 9.938860 1,650 231 169 1280
2019-06-18 10:10:56 GMT 53.608109 9.941764 1,575 232 164 1280
2019-06-18 10:10:53 GMT 53.609161 9.943647 1,525 231 163 1344
2019-06-18 10:10:50 GMT 53.610863 9.947232 1,225 232 157 1472
2019-06-18 10:10:46 GMT 53.612411 9.950867 1,325 232 155 2112
2019-06-18 10:10:42 GMT 53.613979 9.954098 1,250 232 154 2560
2019-06-18 10:10:39 GMT 53.616028 9.958557 1,150 232 154 2624
2019-06-18 10:10:35 GMT 53.617237 9.960964 850 232 157 2880

Making use of Plane Finder data

You are free to use the raw flight data, aircraft information and images provided in this report for your own purposes provided the data is correctly attributed to Plane Finder. We ask that you please credit Plane Finder and link to planefinder.net in close proximity to the content.

Optionally one of the following logos (no smaller then 150x24px) can be used and must link to planefinder.net

Embedding the Plane Finder map

You are welcome to embed the Plane Finder playback map on your website to offer visitors a more interactive experience. We suggest using the following HTML code:

<iframe src="//planefinder.net/data/report/EW7814-D-AIQM-7700-squawk-2019-06-18/map" width="800" height="600" seamless="seamless"></iframe>

Where our data comes from

Plane Finder has a global network of data feeds and antenna radars that receive data broadcast directly from aircraft. The primary technologies used are ADS-B and MLAT. We also show feeds from the FAA and a FLARM glider feed.

Click here to find out more about the Plane Finder network.

How we collect our data